<?xml version="1.0" encoding="UTF-8" standalone="no" ?>
<gpx xmlns="http://www.topografix.com/GPX/1/1" xmlns:xsi="http://www.w3.org/2001/XMLSchema-instance" xsi:schemaLocation="http://www.topografix.com/GPX/1/1 http://www.topografix.com/GPX/1/1/gpx.xsd" version="1.1" creator="VisuGPX - https://www.visugpx.com">
  <metadata>
    <name>Sortie du 04 Juin 2017</name>
    <desc><![CDATA[Sortie du 04 Juin 2017 en forêt domaniale de Lyons]]></desc>
  </metadata>
  <trk>
    <name><![CDATA[montroty04Juin]]></name>
    <trkseg>
      <trkpt lat="49.43845" lon="1.66338">
        <ele>198.7</ele>
        <time>2017-06-04T06:13:02Z</time>
      </trkpt>
      <trkpt lat="49.43845" lon="1.66338">
        <ele>198.7</ele>
        <time>2017-06-04T06:13:03Z</time>
      </trkpt>
      <trkpt lat="49.43848" lon="1.66322">
        <ele>197.8</ele>
        <time>2017-06-04T06:15:14Z</time>
      </trkpt>
      <trkpt lat="49.43848" lon="1.66307">
        <ele>197.8</ele>
        <time>2017-06-04T06:15:17Z</time>
      </trkpt>
      <trkpt lat="49.43844" lon="1.6629">
        <ele>197.7</ele>
        <time>2017-06-04T06:15:22Z</time>
      </trkpt>
      <trkpt lat="49.4385" lon="1.663">
        <ele>197</ele>
        <time>2017-06-04T06:29:19Z</time>
      </trkpt>
      <trkpt lat="49.43843" lon="1.66292">
        <ele>197.1</ele>
        <time>2017-06-04T06:30:29Z</time>
      </trkpt>
      <trkpt lat="49.43837" lon="1.66304">
        <ele>197.1</ele>
        <time>2017-06-04T06:30:45Z</time>
      </trkpt>
      <trkpt lat="49.43839" lon="1.6632">
        <ele>197.1</ele>
        <time>2017-06-04T06:30:49Z</time>
      </trkpt>
      <trkpt lat="49.43839" lon="1.66333">
        <ele>197</ele>
        <time>2017-06-04T06:30:52Z</time>
      </trkpt>
      <trkpt lat="49.43837" lon="1.66347">
        <ele>197</ele>
        <time>2017-06-04T06:30:55Z</time>
      </trkpt>
      <trkpt lat="49.43833" lon="1.6636">
        <ele>196.9</ele>
        <time>2017-06-04T06:30:58Z</time>
      </trkpt>
      <trkpt lat="49.43824" lon="1.6637">
        <ele>196.9</ele>
        <time>2017-06-04T06:31:01Z</time>
      </trkpt>
      <trkpt lat="49.43812" lon="1.66377">
        <ele>196.9</ele>
        <time>2017-06-04T06:31:04Z</time>
      </trkpt>
      <trkpt lat="49.43803" lon="1.66378">
        <ele>196.8</ele>
        <time>2017-06-04T06:31:06Z</time>
      </trkpt>
      <trkpt lat="49.43794" lon="1.66376">
        <ele>196.6</ele>
        <time>2017-06-04T06:31:08Z</time>
      </trkpt>
      <trkpt lat="49.43783" lon="1.66375">
        <ele>196.4</ele>
        <time>2017-06-04T06:31:10Z</time>
      </trkpt>
      <trkpt lat="49.43774" lon="1.66374">
        <ele>196.2</ele>
        <time>2017-06-04T06:31:12Z</time>
      </trkpt>
      <trkpt lat="49.43764" lon="1.66373">
        <ele>195.9</ele>
        <time>2017-06-04T06:31:14Z</time>
      </trkpt>
      <trkpt lat="49.43755" lon="1.66371">
        <ele>195.6</ele>
        <time>2017-06-04T06:31:16Z</time>
      </trkpt>
      <trkpt lat="49.43745" lon="1.6637">
        <ele>195.3</ele>
        <time>2017-06-04T06:31:18Z</time>
      </trkpt>
      <trkpt lat="49.43735" lon="1.66369">
        <ele>194.9</ele>
        <time>2017-06-04T06:31:20Z</time>
      </trkpt>
      <trkpt lat="49.43726" lon="1.66368">
        <ele>194.6</ele>
        <time>2017-06-04T06:31:22Z</time>
      </trkpt>
      <trkpt lat="49.43716" lon="1.66366">
        <ele>194.2</ele>
        <time>2017-06-04T06:31:24Z</time>
      </trkpt>
      <trkpt lat="49.43706" lon="1.66364">
        <ele>193.9</ele>
        <time>2017-06-04T06:31:26Z</time>
      </trkpt>
      <trkpt lat="49.43696" lon="1.66362">
        <ele>193.6</ele>
        <time>2017-06-04T06:31:28Z</time>
      </trkpt>
      <trkpt lat="49.43686" lon="1.66361">
        <ele>193.2</ele>
        <time>2017-06-04T06:31:30Z</time>
      </trkpt>
      <trkpt lat="49.43675" lon="1.6636">
        <ele>192.8</ele>
        <time>2017-06-04T06:31:32Z</time>
      </trkpt>
      <trkpt lat="49.43664" lon="1.66357">
        <ele>192.4</ele>
        <time>2017-06-04T06:31:34Z</time>
      </trkpt>
      <trkpt lat="49.43654" lon="1.66356">
        <ele>192.1</ele>
        <time>2017-06-04T06:31:36Z</time>
      </trkpt>
      <trkpt lat="49.43643" lon="1.66354">
        <ele>191.7</ele>
        <time>2017-06-04T06:31:38Z</time>
      </trkpt>
      <trkpt lat="49.43633" lon="1.66353">
        <ele>191.3</ele>
        <time>2017-06-04T06:31:40Z</time>
      </trkpt>
      <trkpt lat="49.43623" lon="1.66352">
        <ele>190.9</ele>
        <time>2017-06-04T06:31:42Z</time>
      </trkpt>
      <trkpt lat="49.43613" lon="1.66351">
        <ele>190.5</ele>
        <time>2017-06-04T06:31:44Z</time>
      </trkpt>
      <trkpt lat="49.43602" lon="1.6635">
        <ele>190.1</ele>
        <time>2017-06-04T06:31:46Z</time>
      </trkpt>
      <trkpt lat="49.43592" lon="1.6635">
        <ele>189.7</ele>
        <time>2017-06-04T06:31:48Z</time>
      </trkpt>
      <trkpt lat="49.43581" lon="1.6635">
        <ele>189.3</ele>
        <time>2017-06-04T06:31:50Z</time>
      </trkpt>
      <trkpt lat="49.43568" lon="1.66349">
        <ele>188.7</ele>
        <time>2017-06-04T06:31:53Z</time>
      </trkpt>
      <trkpt lat="49.43559" lon="1.66348">
        <ele>188.3</ele>
        <time>2017-06-04T06:31:55Z</time>
      </trkpt>
      <trkpt lat="49.4355" lon="1.66347">
        <ele>187.9</ele>
        <time>2017-06-04T06:31:57Z</time>
      </trkpt>
      <trkpt lat="49.43541" lon="1.66347">
        <ele>187.6</ele>
        <time>2017-06-04T06:31:59Z</time>
      </trkpt>
      <trkpt lat="49.43528" lon="1.66348">
        <ele>187.1</ele>
        <time>2017-06-04T06:32:02Z</time>
      </trkpt>
      <trkpt lat="49.43518" lon="1.66347">
        <ele>186.8</ele>
        <time>2017-06-04T06:32:04Z</time>
      </trkpt>
      <trkpt lat="49.43509" lon="1.66347">
        <ele>186.5</ele>
        <time>2017-06-04T06:32:06Z</time>
      </trkpt>
      <trkpt lat="49.43499" lon="1.66349">
        <ele>186.2</ele>
        <time>2017-06-04T06:32:08Z</time>
      </trkpt>
      <trkpt lat="49.4349" lon="1.66351">
        <ele>185.9</ele>
        <time>2017-06-04T06:32:10Z</time>
      </trkpt>
      <trkpt lat="49.4348" lon="1.66356">
        <ele>185.7</ele>
        <time>2017-06-04T06:32:12Z</time>
      </trkpt>
      <trkpt lat="49.43471" lon="1.66362">
        <ele>185.4</ele>
        <time>2017-06-04T06:32:14Z</time>
      </trkpt>
      <trkpt lat="49.43462" lon="1.66371">
        <ele>185.2</ele>
        <time>2017-06-04T06:32:16Z</time>
      </trkpt>
      <trkpt lat="49.43452" lon="1.6638">
        <ele>184.9</ele>
        <time>2017-06-04T06:32:18Z</time>
      </trkpt>
      <trkpt lat="49.43442" lon="1.66385">
        <ele>184.7</ele>
        <time>2017-06-04T06:32:20Z</time>
      </trkpt>
      <trkpt lat="49.43431" lon="1.66386">
        <ele>184.5</ele>
        <time>2017-06-04T06:32:22Z</time>
      </trkpt>
      <trkpt lat="49.43422" lon="1.66388">
        <ele>184.2</ele>
        <time>2017-06-04T06:32:24Z</time>
      </trkpt>
      <trkpt lat="49.43411" lon="1.66391">
        <ele>184</ele>
        <time>2017-06-04T06:32:27Z</time>
      </trkpt>
      <trkpt lat="49.43401" lon="1.66394">
        <ele>184.1</ele>
        <time>2017-06-04T06:32:30Z</time>
      </trkpt>
      <trkpt lat="49.43391" lon="1.66393">
        <ele>184.2</ele>
        <time>2017-06-04T06:32:33Z</time>
      </trkpt>
      <trkpt lat="49.43379" lon="1.66393">
        <ele>184.6</ele>
        <time>2017-06-04T06:32:36Z</time>
      </trkpt>
      <trkpt lat="49.43367" lon="1.66393">
        <ele>185.1</ele>
        <time>2017-06-04T06:32:39Z</time>
      </trkpt>
      <trkpt lat="49.43355" lon="1.66393">
        <ele>185.8</ele>
        <time>2017-06-04T06:32:42Z</time>
      </trkpt>
      <trkpt lat="49.43344" lon="1.66393">
        <ele>186.4</ele>
        <time>2017-06-04T06:32:45Z</time>
      </trkpt>
      <trkpt lat="49.43334" lon="1.66394">
        <ele>187.3</ele>
        <time>2017-06-04T06:32:48Z</time>
      </trkpt>
      <trkpt lat="49.43324" lon="1.66394">
        <ele>188</ele>
        <time>2017-06-04T06:32:51Z</time>
      </trkpt>
      <trkpt lat="49.43313" lon="1.66395">
        <ele>188.8</ele>
        <time>2017-06-04T06:32:54Z</time>
      </trkpt>
      <trkpt lat="49.433" lon="1.66395">
        <ele>189.6</ele>
        <time>2017-06-04T06:32:57Z</time>
      </trkpt>
      <trkpt lat="49.43289" lon="1.66396">
        <ele>190.4</ele>
        <time>2017-06-04T06:33:00Z</time>
      </trkpt>
      <trkpt lat="49.43278" lon="1.66396">
        <ele>191.1</ele>
        <time>2017-06-04T06:33:03Z</time>
      </trkpt>
      <trkpt lat="49.43266" lon="1.66397">
        <ele>191.8</ele>
        <time>2017-06-04T06:33:06Z</time>
      </trkpt>
      <trkpt lat="49.43255" lon="1.66398">
        <ele>192.4</ele>
        <time>2017-06-04T06:33:09Z</time>
      </trkpt>
      <trkpt lat="49.43243" lon="1.66398">
        <ele>193.1</ele>
        <time>2017-06-04T06:33:12Z</time>
      </trkpt>
      <trkpt lat="49.43232" lon="1.66398">
        <ele>193.7</ele>
        <time>2017-06-04T06:33:15Z</time>
      </trkpt>
      <trkpt lat="49.43222" lon="1.66399">
        <ele>194.3</ele>
        <time>2017-06-04T06:33:18Z</time>
      </trkpt>
      <trkpt lat="49.43211" lon="1.664">
        <ele>194.8</ele>
        <time>2017-06-04T06:33:21Z</time>
      </trkpt>
      <trkpt lat="49.432" lon="1.66399">
        <ele>195.2</ele>
        <time>2017-06-04T06:33:24Z</time>
      </trkpt>
      <trkpt lat="49.43189" lon="1.664">
        <ele>195.7</ele>
        <time>2017-06-04T06:33:27Z</time>
      </trkpt>
      <trkpt lat="49.43179" lon="1.66402">
        <ele>196.1</ele>
        <time>2017-06-04T06:33:30Z</time>
      </trkpt>
      <trkpt lat="49.43168" lon="1.66405">
        <ele>196.5</ele>
        <time>2017-06-04T06:33:33Z</time>
      </trkpt>
      <trkpt lat="49.43157" lon="1.66409">
        <ele>196.8</ele>
        <time>2017-06-04T06:33:36Z</time>
      </trkpt>
      <trkpt lat="49.43145" lon="1.66414">
        <ele>197.1</ele>
        <time>2017-06-04T06:33:39Z</time>
      </trkpt>
      <trkpt lat="49.43133" lon="1.6642">
        <ele>197.3</ele>
        <time>2017-06-04T06:33:42Z</time>
      </trkpt>
      <trkpt lat="49.43121" lon="1.66425">
        <ele>197.5</ele>
        <time>2017-06-04T06:33:45Z</time>
      </trkpt>
      <trkpt lat="49.43109" lon="1.66431">
        <ele>197.6</ele>
        <time>2017-06-04T06:33:48Z</time>
      </trkpt>
      <trkpt lat="49.43097" lon="1.66438">
        <ele>197.7</ele>
        <time>2017-06-04T06:33:51Z</time>
      </trkpt>
      <trkpt lat="49.43085" lon="1.66441">
        <ele>197.8</ele>
        <time>2017-06-04T06:33:54Z</time>
      </trkpt>
      <trkpt lat="49.43075" lon="1.66447">
        <ele>197.8</ele>
        <time>2017-06-04T06:33:56Z</time>
      </trkpt>
      <trkpt lat="49.43065" lon="1.66452">
        <ele>197.8</ele>
        <time>2017-06-04T06:33:58Z</time>
      </trkpt>
      <trkpt lat="49.43054" lon="1.66457">
        <ele>197.6</ele>
        <time>2017-06-04T06:34:00Z</time>
      </trkpt>
      <trkpt lat="49.43044" lon="1.66463">
        <ele>197.5</ele>
        <time>2017-06-04T06:34:02Z</time>
      </trkpt>
      <trkpt lat="49.43033" lon="1.66469">
        <ele>197.2</ele>
        <time>2017-06-04T06:34:04Z</time>
      </trkpt>
      <trkpt lat="49.43023" lon="1.66476">
        <ele>197</ele>
        <time>2017-06-04T06:34:06Z</time>
      </trkpt>
      <trkpt lat="49.43012" lon="1.66484">
        <ele>196.8</ele>
        <time>2017-06-04T06:34:08Z</time>
      </trkpt>
      <trkpt lat="49.43002" lon="1.66492">
        <ele>196.5</ele>
        <time>2017-06-04T06:34:10Z</time>
      </trkpt>
      <trkpt lat="49.42992" lon="1.665">
        <ele>196.2</ele>
        <time>2017-06-04T06:34:12Z</time>
      </trkpt>
      <trkpt lat="49.42984" lon="1.66507">
        <ele>195.9</ele>
        <time>2017-06-04T06:34:14Z</time>
      </trkpt>
      <trkpt lat="49.42975" lon="1.66515">
        <ele>195.5</ele>
        <time>2017-06-04T06:34:17Z</time>
      </trkpt>
      <trkpt lat="49.42973" lon="1.66531">
        <ele>193.5</ele>
        <time>2017-06-04T06:35:03Z</time>
      </trkpt>
      <trkpt lat="49.4297" lon="1.66545">
        <ele>193.4</ele>
        <time>2017-06-04T06:35:06Z</time>
      </trkpt>
      <trkpt lat="49.42968" lon="1.66561">
        <ele>193.3</ele>
        <time>2017-06-04T06:35:09Z</time>
      </trkpt>
      <trkpt lat="49.42967" lon="1.66576">
        <ele>193.1</ele>
        <time>2017-06-04T06:35:13Z</time>
      </trkpt>
      <trkpt lat="49.42963" lon="1.66592">
        <ele>192.8</ele>
        <time>2017-06-04T06:35:21Z</time>
      </trkpt>
      <trkpt lat="49.42961" lon="1.6661">
        <ele>192.7</ele>
        <time>2017-06-04T06:35:24Z</time>
      </trkpt>
      <trkpt lat="49.4296" lon="1.6663">
        <ele>192.6</ele>
        <time>2017-06-04T06:35:27Z</time>
      </trkpt>
      <trkpt lat="49.42958" lon="1.66644">
        <ele>192.5</ele>
        <time>2017-06-04T06:35:29Z</time>
      </trkpt>
      <trkpt lat="49.42957" lon="1.66664">
        <ele>192.4</ele>
        <time>2017-06-04T06:35:32Z</time>
      </trkpt>
      <trkpt lat="49.42957" lon="1.66684">
        <ele>192.4</ele>
        <time>2017-06-04T06:35:35Z</time>
      </trkpt>
      <trkpt lat="49.42956" lon="1.66704">
        <ele>192.5</ele>
        <time>2017-06-04T06:35:38Z</time>
      </trkpt>
      <trkpt lat="49.42955" lon="1.66724">
        <ele>192.6</ele>
        <time>2017-06-04T06:35:41Z</time>
      </trkpt>
      <trkpt lat="49.42953" lon="1.66743">
        <ele>192.8</ele>
        <time>2017-06-04T06:35:44Z</time>
      </trkpt>
      <trkpt lat="49.42952" lon="1.66762">
        <ele>193</ele>
        <time>2017-06-04T06:35:47Z</time>
      </trkpt>
      <trkpt lat="49.42951" lon="1.6678">
        <ele>193.2</ele>
        <time>2017-06-04T06:35:50Z</time>
      </trkpt>
      <trkpt lat="49.4295" lon="1.66799">
        <ele>193.5</ele>
        <time>2017-06-04T06:35:53Z</time>
      </trkpt>
      <trkpt lat="49.42948" lon="1.66817">
        <ele>193.8</ele>
        <time>2017-06-04T06:35:56Z</time>
      </trkpt>
      <trkpt lat="49.42947" lon="1.66837">
        <ele>194.1</ele>
        <time>2017-06-04T06:35:59Z</time>
      </trkpt>
      <trkpt lat="49.42945" lon="1.66856">
        <ele>194.5</ele>
        <time>2017-06-04T06:36:02Z</time>
      </trkpt>
      <trkpt lat="49.42944" lon="1.66876">
        <ele>194.7</ele>
        <time>2017-06-04T06:36:05Z</time>
      </trkpt>
      <trkpt lat="49.42943" lon="1.66896">
        <ele>195</ele>
        <time>2017-06-04T06:36:08Z</time>
      </trkpt>
      <trkpt lat="49.42942" lon="1.66915">
        <ele>195.2</ele>
        <time>2017-06-04T06:36:11Z</time>
      </trkpt>
      <trkpt lat="49.42941" lon="1.66935">
        <ele>195.4</ele>
        <time>2017-06-04T06:36:14Z</time>
      </trkpt>
      <trkpt lat="49.4294" lon="1.66954">
        <ele>195.6</ele>
        <time>2017-06-04T06:36:17Z</time>
      </trkpt>
      <trkpt lat="49.42939" lon="1.66972">
        <ele>195.7</ele>
        <time>2017-06-04T06:36:20Z</time>
      </trkpt>
      <trkpt lat="49.42937" lon="1.6699">
        <ele>195.9</ele>
        <time>2017-06-04T06:36:23Z</time>
      </trkpt>
      <trkpt lat="49.42935" lon="1.67009">
        <ele>196</ele>
        <time>2017-06-04T06:36:26Z</time>
      </trkpt>
      <trkpt lat="49.42933" lon="1.67027">
        <ele>196.1</ele>
        <time>2017-06-04T06:36:29Z</time>
      </trkpt>
      <trkpt lat="49.42932" lon="1.67046">
        <ele>196.2</ele>
        <time>2017-06-04T06:36:32Z</time>
      </trkpt>
      <trkpt lat="49.42931" lon="1.67064">
        <ele>196.3</ele>
        <time>2017-06-04T06:36:35Z</time>
      </trkpt>
      <trkpt lat="49.42929" lon="1.67081">
        <ele>196.4</ele>
        <time>2017-06-04T06:36:38Z</time>
      </trkpt>
      <trkpt lat="49.42929" lon="1.67095">
        <ele>196.5</ele>
        <time>2017-06-04T06:36:41Z</time>
      </trkpt>
      <trkpt lat="49.42927" lon="1.6711">
        <ele>196.6</ele>
        <time>2017-06-04T06:36:45Z</time>
      </trkpt>
      <trkpt lat="49.42916" lon="1.67114">
        <ele>196.6</ele>
        <time>2017-06-04T06:36:49Z</time>
      </trkpt>
      <trkpt lat="49.42906" lon="1.67112">
        <ele>196.7</ele>
        <time>2017-06-04T06:36:52Z</time>
      </trkpt>
      <trkpt lat="49.42895" lon="1.67112">
        <ele>196.7</ele>
        <time>2017-06-04T06:36:55Z</time>
      </trkpt>
      <trkpt lat="49.42886" lon="1.6711">
        <ele>196.7</ele>
        <time>2017-06-04T06:36:58Z</time>
      </trkpt>
      <trkpt lat="49.42875" lon="1.67108">
        <ele>196.7</ele>
        <time>2017-06-04T06:37:01Z</time>
      </trkpt>
      <trkpt lat="49.42864" lon="1.67106">
        <ele>196.7</ele>
        <time>2017-06-04T06:37:04Z</time>
      </trkpt>
      <trkpt lat="49.42852" lon="1.67104">
        <ele>196.7</ele>
        <time>2017-06-04T06:37:07Z</time>
      </trkpt>
      <trkpt lat="49.4284" lon="1.67101">
        <ele>196.7</ele>
        <time>2017-06-04T06:37:10Z</time>
      </trkpt>
      <trkpt lat="49.42829" lon="1.67099">
        <ele>196.7</ele>
        <time>2017-06-04T06:37:13Z</time>
      </trkpt>
      <trkpt lat="49.42818" lon="1.67096">
        <ele>196.6</ele>
        <time>2017-06-04T06:37:16Z</time>
      </trkpt>
      <trkpt lat="49.42806" lon="1.67095">
        <ele>196.5</ele>
        <time>2017-06-04T06:37:19Z</time>
      </trkpt>
      <trkpt lat="49.42796" lon="1.67094">
        <ele>196.4</ele>
        <time>2017-06-04T06:37:22Z</time>
      </trkpt>
      <trkpt lat="49.42785" lon="1.67092">
        <ele>196.4</ele>
        <time>2017-06-04T06:37:25Z</time>
      </trkpt>
      <trkpt lat="49.42773" lon="1.6709">
        <ele>196.3</ele>
        <time>2017-06-04T06:37:28Z</time>
      </trkpt>
      <trkpt lat="49.42762" lon="1.67088">
        <ele>196.2</ele>
        <time>2017-06-04T06:37:31Z</time>
      </trkpt>
      <trkpt lat="49.42753" lon="1.67086">
        <ele>196.2</ele>
        <time>2017-06-04T06:37:34Z</time>
      </trkpt>
      <trkpt lat="49.42741" lon="1.67083">
        <ele>196.1</ele>
        <time>2017-06-04T06:37:37Z</time>
      </trkpt>
      <trkpt lat="49.4273" lon="1.6708">
        <ele>196</ele>
        <time>2017-06-04T06:37:40Z</time>
      </trkpt>
      <trkpt lat="49.42718" lon="1.67079">
        <ele>195.8</ele>
        <time>2017-06-04T06:37:43Z</time>
      </trkpt>
      <trkpt lat="49.42706" lon="1.67076">
        <ele>195.6</ele>
        <time>2017-06-04T06:37:46Z</time>
      </trkpt>
      <trkpt lat="49.42693" lon="1.67073">
        <ele>195.4</ele>
        <time>2017-06-04T06:37:49Z</time>
      </trkpt>
      <trkpt lat="49.42681" lon="1.67069">
        <ele>195.2</ele>
        <time>2017-06-04T06:37:52Z</time>
      </trkpt>
      <trkpt lat="49.42669" lon="1.67067">
        <ele>195.1</ele>
        <time>2017-06-04T06:37:55Z</time>
      </trkpt>
      <trkpt lat="49.42659" lon="1.67065">
        <ele>194.8</ele>
        <time>2017-06-04T06:37:58Z</time>
      </trkpt>
      <trkpt lat="49.42649" lon="1.67061">
        <ele>194.5</ele>
        <time>2017-06-04T06:38:02Z</time>
      </trkpt>
      <trkpt lat="49.42639" lon="1.67056">
        <ele>194.2</ele>
        <time>2017-06-04T06:38:07Z</time>
      </trkpt>
      <trkpt lat="49.42629" lon="1.67056">
        <ele>194</ele>
        <time>2017-06-04T06:38:12Z</time>
      </trkpt>
      <trkpt lat="49.42617" lon="1.67055">
        <ele>193.9</ele>
        <time>2017-06-04T06:38:15Z</time>
      </trkpt>
      <trkpt lat="49.42605" lon="1.67053">
        <ele>193.8</ele>
        <time>2017-06-04T06:38:18Z</time>
      </trkpt>
      <trkpt lat="49.42594" lon="1.67049">
        <ele>193.8</ele>
        <time>2017-06-04T06:38:21Z</time>
      </trkpt>
      <trkpt lat="49.42583" lon="1.6705">
        <ele>193.8</ele>
        <time>2017-06-04T06:38:24Z</time>
      </trkpt>
      <trkpt lat="49.42572" lon="1.67051">
        <ele>193.8</ele>
        <time>2017-06-04T06:38:28Z</time>
      </trkpt>
      <trkpt lat="49.42561" lon="1.67048">
        <ele>193.8</ele>
        <time>2017-06-04T06:38:32Z</time>
      </trkpt>
      <trkpt lat="49.42549" lon="1.67045">
        <ele>193.9</ele>
        <time>2017-06-04T06:38:35Z</time>
      </trkpt>
      <trkpt lat="49.42539" lon="1.67044">
        <ele>194</ele>
        <time>2017-06-04T06:38:38Z</time>
      </trkpt>
      <trkpt lat="49.4253" lon="1.6704">
        <ele>194</ele>
        <time>2017-06-04T06:38:42Z</time>
      </trkpt>
      <trkpt lat="49.42519" lon="1.67039">
        <ele>194.1</ele>
        <time>2017-06-04T06:38:48Z</time>
      </trkpt>
      <trkpt lat="49.4251" lon="1.67038">
        <ele>194.2</ele>
        <time>2017-06-04T06:38:53Z</time>
      </trkpt>
      <trkpt lat="49.42499" lon="1.67035">
        <ele>194.2</ele>
        <time>2017-06-04T06:38:57Z</time>
      </trkpt>
      <trkpt lat="49.4249" lon="1.67032">
        <ele>194.2</ele>
        <time>2017-06-04T06:39:00Z</time>
      </trkpt>
      <trkpt lat="49.42478" lon="1.67029">
        <ele>194.2</ele>
        <time>2017-06-04T06:39:05Z</time>
      </trkpt>
      <trkpt lat="49.42468" lon="1.67029">
        <ele>194.2</ele>
        <time>2017-06-04T06:39:09Z</time>
      </trkpt>
      <trkpt lat="49.42458" lon="1.67026">
        <ele>194.2</ele>
        <time>2017-06-04T06:39:13Z</time>
      </trkpt>
      <trkpt lat="49.42448" lon="1.67024">
        <ele>194.3</ele>
        <time>2017-06-04T06:39:17Z</time>
      </trkpt>
      <trkpt lat="49.42437" lon="1.67023">
        <ele>194.3</ele>
        <time>2017-06-04T06:39:21Z</time>
      </trkpt>
      <trkpt lat="49.42428" lon="1.67021">
        <ele>194.3</ele>
        <time>2017-06-04T06:39:25Z</time>
      </trkpt>
      <trkpt lat="49.42417" lon="1.6702">
        <ele>194.3</ele>
        <time>2017-06-04T06:39:29Z</time>
      </trkpt>
      <trkpt lat="49.42406" lon="1.67018">
        <ele>194.2</ele>
        <time>2017-06-04T06:39:33Z</time>
      </trkpt>
      <trkpt lat="49.42396" lon="1.67016">
        <ele>194.1</ele>
        <time>2017-06-04T06:39:37Z</time>
      </trkpt>
      <trkpt lat="49.42385" lon="1.67013">
        <ele>194</ele>
        <time>2017-06-04T06:39:41Z</time>
      </trkpt>
      <trkpt lat="49.42375" lon="1.67011">
        <ele>193.9</ele>
        <time>2017-06-04T06:39:45Z</time>
      </trkpt>
      <trkpt lat="49.42366" lon="1.67009">
        <ele>193.8</ele>
        <time>2017-06-04T06:39:48Z</time>
      </trkpt>
      <trkpt lat="49.42354" lon="1.67008">
        <ele>193.6</ele>
        <time>2017-06-04T06:39:52Z</time>
      </trkpt>
      <trkpt lat="49.42342" lon="1.67007">
        <ele>193.5</ele>
        <time>2017-06-04T06:39:56Z</time>
      </trkpt>
      <trkpt lat="49.42333" lon="1.67006">
        <ele>193.4</ele>
        <time>2017-06-04T06:39:59Z</time>
      </trkpt>
      <trkpt lat="49.42322" lon="1.67005">
        <ele>193.3</ele>
        <time>2017-06-04T06:40:02Z</time>
      </trkpt>
      <trkpt lat="49.42311" lon="1.67002">
        <ele>193.1</ele>
        <time>2017-06-04T06:40:05Z</time>
      </trkpt>
      <trkpt lat="49.42299" lon="1.66999">
        <ele>192.9</ele>
        <time>2017-06-04T06:40:08Z</time>
      </trkpt>
      <trkpt lat="49.42288" lon="1.66997">
        <ele>192.6</ele>
        <time>2017-06-04T06:40:11Z</time>
      </trkpt>
      <trkpt lat="49.42277" lon="1.66996">
        <ele>192.3</ele>
        <time>2017-06-04T06:40:14Z</time>
      </trkpt>
      <trkpt lat="49.42265" lon="1.66993">
        <ele>192.1</ele>
        <time>2017-06-04T06:40:17Z</time>
      </trkpt>
      <trkpt lat="49.42253" lon="1.6699">
        <ele>191.8</ele>
        <time>2017-06-04T06:40:20Z</time>
      </trkpt>
      <trkpt lat="49.4224" lon="1.66988">
        <ele>191.5</ele>
        <time>2017-06-04T06:40:23Z</time>
      </trkpt>
      <trkpt lat="49.42227" lon="1.66986">
        <ele>191.2</ele>
        <time>2017-06-04T06:40:26Z</time>
      </trkpt>
      <trkpt lat="49.42215" lon="1.66983">
        <ele>190.9</ele>
        <time>2017-06-04T06:40:29Z</time>
      </trkpt>
      <trkpt lat="49.42202" lon="1.6698">
        <ele>190.6</ele>
        <time>2017-06-04T06:40:32Z</time>
      </trkpt>
      <trkpt lat="49.42193" lon="1.66977">
        <ele>190.3</ele>
        <time>2017-06-04T06:40:35Z</time>
      </trkpt>
      <trkpt lat="49.42184" lon="1.66975">
        <ele>190</ele>
        <time>2017-06-04T06:40:38Z</time>
      </trkpt>
      <trkpt lat="49.42172" lon="1.66972">
        <ele>189.8</ele>
        <time>2017-06-04T06:40:42Z</time>
      </trkpt>
      <trkpt lat="49.42162" lon="1.6697">
        <ele>189.6</ele>
        <time>2017-06-04T06:40:45Z</time>
      </trkpt>
      <trkpt lat="49.42151" lon="1.66969">
        <ele>189.5</ele>
        <time>2017-06-04T06:40:48Z</time>
      </trkpt>
      <trkpt lat="49.42142" lon="1.66967">
        <ele>189.4</ele>
        <time>2017-06-04T06:40:51Z</time>
      </trkpt>
      <trkpt lat="49.42133" lon="1.66964">
        <ele>189.3</ele>
        <time>2017-06-04T06:40:54Z</time>
      </trkpt>
      <trkpt lat="49.42123" lon="1.66964">
        <ele>189.1</ele>
        <time>2017-06-04T06:40:58Z</time>
      </trkpt>
      <trkpt lat="49.42117" lon="1.66976">
        <ele>189</ele>
        <time>2017-06-04T06:41:05Z</time>
      </trkpt>
      <trkpt lat="49.42115" lon="1.6699">
        <ele>188.9</ele>
        <time>2017-06-04T06:41:11Z</time>
      </trkpt>
      <trkpt lat="49.42113" lon="1.67006">
        <ele>188.9</ele>
        <time>2017-06-04T06:41:16Z</time>
      </trkpt>
      <trkpt lat="49.42112" lon="1.67021">
        <ele>188.9</ele>
        <time>2017-06-04T06:41:21Z</time>
      </trkpt>
      <trkpt lat="49.42109" lon="1.67034">
        <ele>189</ele>
        <time>2017-06-04T06:41:26Z</time>
      </trkpt>
      <trkpt lat="49.42106" lon="1.67051">
        <ele>189.6</ele>
        <time>2017-06-04T06:41:33Z</time>
      </trkpt>
      <trkpt lat="49.42104" lon="1.67066">
        <ele>190.1</ele>
        <time>2017-06-04T06:41:40Z</time>
      </trkpt>
      <trkpt lat="49.42101" lon="1.67079">
        <ele>190.5</ele>
        <time>2017-06-04T06:41:46Z</time>
      </trkpt>
      <trkpt lat="49.42101" lon="1.67094">
        <ele>190.7</ele>
        <time>2017-06-04T06:41:52Z</time>
      </trkpt>
      <trkpt lat="49.42096" lon="1.67106">
        <ele>191.1</ele>
        <time>2017-06-04T06:41:59Z</time>
      </trkpt>
      <trkpt lat="49.42093" lon="1.67121">
        <ele>191.4</ele>
        <time>2017-06-04T06:42:05Z</time>
      </trkpt>
      <trkpt lat="49.42091" lon="1.67134">
        <ele>191.7</ele>
        <time>2017-06-04T06:42:10Z</time>
      </trkpt>
      <trkpt lat="49.4209" lon="1.6715">
        <ele>192</ele>
        <time>2017-06-04T06:42:16Z</time>
      </trkpt>
      <trkpt lat="49.42089" lon="1.67165">
        <ele>192.2</ele>
        <time>2017-06-04T06:42:22Z</time>
      </trkpt>
      <trkpt lat="49.42085" lon="1.67178">
        <ele>192.4</ele>
        <time>2017-06-04T06:42:28Z</time>
      </trkpt>
      <trkpt lat="49.42085" lon="1.67192">
        <ele>192.9</ele>
        <time>2017-06-04T06:42:43Z</time>
      </trkpt>
      <trkpt lat="49.42078" lon="1.67201">
        <ele>193.4</ele>
        <time>2017-06-04T06:43:23Z</time>
      </trkpt>
      <trkpt lat="49.42069" lon="1.67199">
        <ele>193.4</ele>
        <time>2017-06-04T06:43:28Z</time>
      </trkpt>
      <trkpt lat="49.42059" lon="1.67197">
        <ele>193.4</ele>
        <time>2017-06-04T06:43:32Z</time>
      </trkpt>
      <trkpt lat="49.42049" lon="1.67194">
        <ele>193.4</ele>
        <time>2017-06-04T06:43:35Z</time>
      </trkpt>
      <trkpt lat="49.42039" lon="1.67192">
        <ele>193.3</ele>
        <time>2017-06-04T06:43:38Z</time>
      </trkpt>
      <trkpt lat="49.42028" lon="1.67191">
        <ele>193.2</ele>
        <time>2017-06-04T06:43:41Z</time>
      </trkpt>
      <trkpt lat="49.42018" lon="1.67188">
        <ele>193.1</ele>
        <time>2017-06-04T06:43:44Z</time>
      </trkpt>
      <trkpt lat="49.42008" lon="1.67186">
        <ele>192.9</ele>
        <time>2017-06-04T06:43:47Z</time>
      </trkpt>
      <trkpt lat="49.41996" lon="1.67183">
        <ele>192.7</ele>
        <time>2017-06-04T06:43:50Z</time>
      </trkpt>
      <trkpt lat="49.41984" lon="1.67181">
        <ele>192.4</ele>
        <time>2017-06-04T06:43:53Z</time>
      </trkpt>
      <trkpt lat="49.41971" lon="1.67176">
        <ele>191.8</ele>
        <time>2017-06-04T06:43:57Z</time>
      </trkpt>
      <trkpt lat="49.41958" lon="1.67174">
        <ele>191.4</ele>
        <time>2017-06-04T06:44:00Z</time>
      </trkpt>
      <trkpt lat="49.41944" lon="1.67172">
        <ele>190.9</ele>
        <time>2017-06-04T06:44:03Z</time>
      </trkpt>
      <trkpt lat="49.41934" lon="1.67169">
        <ele>190.6</ele>
        <time>2017-06-04T06:44:05Z</time>
      </trkpt>
      <trkpt lat="49.41922" lon="1.67166">
        <ele>190.3</ele>
        <time>2017-06-04T06:44:07Z</time>
      </trkpt>
      <trkpt lat="49.4191" lon="1.67163">
        <ele>189.9</ele>
        <time>2017-06-04T06:44:09Z</time>
      </trkpt>
      <trkpt lat="49.41898" lon="1.67159">
        <ele>189.5</ele>
        <time>2017-06-04T06:44:11Z</time>
      </trkpt>
      <trkpt lat="49.41886" lon="1.67155">
        <ele>189</ele>
        <time>2017-06-04T06:44:13Z</time>
      </trkpt>
      <trkpt lat="49.41873" lon="1.67152">
        <ele>188.6</ele>
        <time>2017-06-04T06:44:15Z</time>
      </trkpt>
      <trkpt lat="49.41862" lon="1.67151">
        <ele>188.1</ele>
        <time>2017-06-04T06:44:17Z</time>
      </trkpt>
      <trkpt lat="49.41851" lon="1.67148">
        <ele>187.6</ele>
        <time>2017-06-04T06:44:19Z</time>
      </trkpt>
      <trkpt lat="49.41842" lon="1.67145">
        <ele>187.2</ele>
        <time>2017-06-04T06:44:21Z</time>
      </trkpt>
      <trkpt lat="49.4183" lon="1.67143">
        <ele>186.5</ele>
        <time>2017-06-04T06:44:24Z</time>
      </trkpt>
      <trkpt lat="49.41819" lon="1.6714">
        <ele>185.9</ele>
        <time>2017-06-04T06:44:27Z</time>
      </trkpt>
      <trkpt lat="49.41807" lon="1.67138">
        <ele>185.3</ele>
        <time>2017-06-04T06:44:30Z</time>
      </trkpt>
      <trkpt lat="49.41795" lon="1.67134">
        <ele>184.7</ele>
        <time>2017-06-04T06:44:33Z</time>
      </trkpt>
      <trkpt lat="49.41786" lon="1.67131">
        <ele>184.4</ele>
        <time>2017-06-04T06:44:35Z</time>
      </trkpt>
      <trkpt lat="49.41774" lon="1.67127">
        <ele>183.8</ele>
        <time>2017-06-04T06:44:38Z</time>
      </trkpt>
      <trkpt lat="49.41763" lon="1.67126">
        <ele>183.2</ele>
        <time>2017-06-04T06:44:41Z</time>
      </trkpt>
      <trkpt lat="49.41754" lon="1.67124">
        <ele>182.7</ele>
        <time>2017-06-04T06:44:44Z</time>
      </trkpt>
      <trkpt lat="49.41744" lon="1.67118">
        <ele>182.2</ele>
        <time>2017-06-04T06:44:47Z</time>
      </trkpt>
      <trkpt lat="49.41735" lon="1.67117">
        <ele>181.5</ele>
        <time>2017-06-04T06:44:51Z</time>
      </trkpt>
      <trkpt lat="49.41725" lon="1.67115">
        <ele>181</ele>
        <time>2017-06-04T06:44:55Z</time>
      </trkpt>
      <trkpt lat="49.41717" lon="1.67106">
        <ele>180.3</ele>
        <time>2017-06-04T06:45:00Z</time>
      </trkpt>
      <trkpt lat="49.41716" lon="1.67091">
        <ele>179.9</ele>
        <time>2017-06-04T06:45:05Z</time>
      </trkpt>
      <trkpt lat="49.41715" lon="1.67075">
        <ele>179.6</ele>
        <time>2017-06-04T06:45:09Z</time>
      </trkpt>
      <trkpt lat="49.41714" lon="1.67058">
        <ele>179.4</ele>
        <time>2017-06-04T06:45:13Z</time>
      </trkpt>
      <trkpt lat="49.41714" lon="1.67044">
        <ele>179.3</ele>
        <time>2017-06-04T06:45:16Z</time>
      </trkpt>
      <trkpt lat="49.41713" lon="1.6703">
        <ele>179.2</ele>
        <time>2017-06-04T06:45:19Z</time>
      </trkpt>
      <trkpt lat="49.41714" lon="1.67015">
        <ele>179.1</ele>
        <time>2017-06-04T06:45:22Z</time>
      </trkpt>
      <trkpt lat="49.41716" lon="1.66999">
        <ele>179.1</ele>
        <time>2017-06-04T06:45:25Z</time>
      </trkpt>
      <trkpt lat="49.41716" lon="1.66983">
        <ele>179</ele>
        <time>2017-06-04T06:45:28Z</time>
      </trkpt>
      <trkpt lat="49.41716" lon="1.66965">
        <ele>179</ele>
        <time>2017-06-04T06:45:31Z</time>
      </trkpt>
      <trkpt lat="49.41718" lon="1.66948">
        <ele>179</ele>
        <time>2017-06-04T06:45:34Z</time>
      </trkpt>
      <trkpt lat="49.4172" lon="1.6693">
        <ele>179.1</ele>
        <time>2017-06-04T06:45:37Z</time>
      </trkpt>
      <trkpt lat="49.41721" lon="1.66913">
        <ele>179.1</ele>
        <time>2017-06-04T06:45:40Z</time>
      </trkpt>
      <trkpt lat="49.41723" lon="1.66896">
        <ele>179.2</ele>
        <time>2017-06-04T06:45:43Z</time>
      </trkpt>
      <trkpt lat="49.41725" lon="1.66878">
        <ele>179.4</ele>
        <time>2017-06-04T06:45:46Z</time>
      </trkpt>
      <trkpt lat="49.41726" lon="1.66859">
        <ele>179.7</ele>
        <time>2017-06-04T06:45:49Z</time>
      </trkpt>
      <trkpt lat="49.41727" lon="1.6684">
        <ele>180</ele>
        <time>2017-06-04T06:45:52Z</time>
      </trkpt>
      <trkpt lat="49.41726" lon="1.66819">
        <ele>180.2</ele>
        <time>2017-06-04T06:45:55Z</time>
      </trkpt>
      <trkpt lat="49.41728" lon="1.66801">
        <ele>180.4</ele>
        <time>2017-06-04T06:45:58Z</time>
      </trkpt>
      <trkpt lat="49.41728" lon="1.66781">
        <ele>180.7</ele>
        <time>2017-06-04T06:46:01Z</time>
      </trkpt>
      <trkpt lat="49.41729" lon="1.66762">
        <ele>180.9</ele>
        <time>2017-06-04T06:46:04Z</time>
      </trkpt>
      <trkpt lat="49.41728" lon="1.66742">
        <ele>181.1</ele>
        <time>2017-06-04T06:46:07Z</time>
      </trkpt>
      <trkpt lat="49.41728" lon="1.66727">
        <ele>181.2</ele>
        <time>2017-06-04T06:46:09Z</time>
      </trkpt>
      <trkpt lat="49.41727" lon="1.66713">
        <ele>181.3</ele>
        <time>2017-06-04T06:46:11Z</time>
      </trkpt>
      <trkpt lat="49.41726" lon="1.66697">
        <ele>181.4</ele>
        <time>2017-06-04T06:46:13Z</time>
      </trkpt>
      <trkpt lat="49.41725" lon="1.66682">
        <ele>181.4</ele>
        <time>2017-06-04T06:46:15Z</time>
      </trkpt>
      <trkpt lat="49.41724" lon="1.66665">
        <ele>181.4</ele>
        <time>2017-06-04T06:46:17Z</time>
      </trkpt>
      <trkpt lat="49.41722" lon="1.66648">
        <ele>181.3</ele>
        <time>2017-06-04T06:46:19Z</time>
      </trkpt>
      <trkpt lat="49.4172" lon="1.6663">
        <ele>181.2</ele>
        <time>2017-06-04T06:46:21Z</time>
      </trkpt>
      <trkpt lat="49.41719" lon="1.6661">
        <ele>181</ele>
        <time>2017-06-04T06:46:23Z</time>
      </trkpt>
      <trkpt lat="49.41716" lon="1.66588">
        <ele>180.7</ele>
        <time>2017-06-04T06:46:25Z</time>
      </trkpt>
      <trkpt lat="49.41713" lon="1.66564">
        <ele>180.3</ele>
        <time>2017-06-04T06:46:27Z</time>
      </trkpt>
      <trkpt lat="49.41711" lon="1.66539">
        <ele>179.9</ele>
        <time>2017-06-04T06:46:29Z</time>
      </trkpt>
      <trkpt lat="49.41709" lon="1.66511">
        <ele>179.4</ele>
        <time>2017-06-04T06:46:31Z</time>
      </trkpt>
      <trkpt lat="49.41708" lon="1.66484">
        <ele>178.9</ele>
        <time>2017-06-04T06:46:33Z</time>
      </trkpt>
      <trkpt lat="49.41707" lon="1.6647">
        <ele>178.6</ele>
        <time>2017-06-04T06:46:34Z</time>
      </trkpt>
      <trkpt lat="49.41706" lon="1.66443">
        <ele>178</ele>
        <time>2017-06-04T06:46:36Z</time>
      </trkpt>
      <trkpt lat="49.41706" lon="1.66417">
        <ele>177.4</ele>
        <time>2017-06-04T06:46:38Z</time>
      </trkpt>
      <trkpt lat="49.41705" lon="1.66392">
        <ele>176.8</ele>
        <time>2017-06-04T06:46:40Z</time>
      </trkpt>
      <trkpt lat="49.41707" lon="1.66368">
        <ele>176</ele>
        <time>2017-06-04T06:46:42Z</time>
      </trkpt>
      <trkpt lat="49.41709" lon="1.66343">
        <ele>175.2</ele>
        <time>2017-06-04T06:46:44Z</time>
      </trkpt>
      <trkpt lat="49.41714" lon="1.6632">
        <ele>174.4</ele>
        <time>2017-06-04T06:46:46Z</time>
      </trkpt>
      <trkpt lat="49.41718" lon="1.66296">
        <ele>173.6</ele>
        <time>2017-06-04T06:46:48Z</time>
      </trkpt>
      <trkpt lat="49.41723" lon="1.66271">
        <ele>172.7</ele>
        <time>2017-06-04T06:46:50Z</time>
      </trkpt>
      <trkpt lat="49.41727" lon="1.66245">
        <ele>171.8</ele>
        <time>2017-06-04T06:46:52Z</time>
      </trkpt>
      <trkpt lat="49.41733" lon="1.66222">
        <ele>170.9</ele>
        <time>2017-06-04T06:46:54Z</time>
      </trkpt>
      <trkpt lat="49.41741" lon="1.66201">
        <ele>170</ele>
        <time>2017-06-04T06:46:56Z</time>
      </trkpt>
      <trkpt lat="49.41746" lon="1.6618">
        <ele>169.1</ele>
        <time>2017-06-04T06:46:58Z</time>
      </trkpt>
      <trkpt lat="49.41749" lon="1.66158">
        <ele>168.2</ele>
        <time>2017-06-04T06:47:00Z</time>
      </trkpt>
      <trkpt lat="49.41755" lon="1.66138">
        <ele>167.2</ele>
        <time>2017-06-04T06:47:02Z</time>
      </trkpt>
      <trkpt lat="49.41759" lon="1.66117">
        <ele>166.2</ele>
        <time>2017-06-04T06:47:04Z</time>
      </trkpt>
      <trkpt lat="49.41761" lon="1.66095">
        <ele>165.2</ele>
        <time>2017-06-04T06:47:06Z</time>
      </trkpt>
      <trkpt lat="49.41765" lon="1.66074">
        <ele>164.2</ele>
        <time>2017-06-04T06:47:08Z</time>
      </trkpt>
      <trkpt lat="49.41768" lon="1.66055">
        <ele>163.2</ele>
        <time>2017-06-04T06:47:10Z</time>
      </trkpt>
      <trkpt lat="49.41769" lon="1.6604">
        <ele>162.3</ele>
        <time>2017-06-04T06:47:12Z</time>
      </trkpt>
      <trkpt lat="49.41769" lon="1.66025">
        <ele>161.1</ele>
        <time>2017-06-04T06:47:15Z</time>
      </trkpt>
      <trkpt lat="49.41761" lon="1.66017">
        <ele>159.5</ele>
        <time>2017-06-04T06:47:20Z</time>
      </trkpt>
      <trkpt lat="49.41753" lon="1.66011">
        <ele>158.4</ele>
        <time>2017-06-04T06:47:24Z</time>
      </trkpt>
      <trkpt lat="49.41762" lon="1.66014">
        <ele>156.3</ele>
        <time>2017-06-04T06:47:36Z</time>
      </trkpt>
      <trkpt lat="49.41763" lon="1.65999">
        <ele>155.7</ele>
        <time>2017-06-04T06:47:42Z</time>
      </trkpt>
      <trkpt lat="49.41761" lon="1.65984">
        <ele>155.5</ele>
        <time>2017-06-04T06:47:44Z</time>
      </trkpt>
      <trkpt lat="49.41759" lon="1.65963">
        <ele>155.4</ele>
        <time>2017-06-04T06:47:47Z</time>
      </trkpt>
      <trkpt lat="49.41757" lon="1.65944">
        <ele>155.6</ele>
        <time>2017-06-04T06:47:50Z</time>
      </trkpt>
      <trkpt lat="49.41754" lon="1.65926">
        <ele>155.8</ele>
        <time>2017-06-04T06:47:53Z</time>
      </trkpt>
      <trkpt lat="49.41752" lon="1.65911">
        <ele>156</ele>
        <time>2017-06-04T06:47:55Z</time>
      </trkpt>
      <trkpt lat="49.41749" lon="1.65896">
        <ele>156.2</ele>
        <time>2017-06-04T06:47:57Z</time>
      </trkpt>
      <trkpt lat="49.41746" lon="1.6588">
        <ele>156.3</ele>
        <time>2017-06-04T06:47:59Z</time>
      </trkpt>
      <trkpt lat="49.41743" lon="1.65864">
        <ele>156.4</ele>
        <time>2017-06-04T06:48:01Z</time>
      </trkpt>
      <trkpt lat="49.41739" lon="1.65847">
        <ele>156.4</ele>
        <time>2017-06-04T06:48:03Z</time>
      </trkpt>
      <trkpt lat="49.41735" lon="1.6583">
        <ele>156.3</ele>
        <time>2017-06-04T06:48:05Z</time>
      </trkpt>
      <trkpt lat="49.41732" lon="1.65816">
        <ele>156.2</ele>
        <time>2017-06-04T06:48:07Z</time>
      </trkpt>
      <trkpt lat="49.41727" lon="1.658">
        <ele>156.1</ele>
        <time>2017-06-04T06:48:10Z</time>
      </trkpt>
      <trkpt lat="49.41721" lon="1.65785">
        <ele>156</ele>
        <time>2017-06-04T06:48:13Z</time>
      </trkpt>
      <trkpt lat="49.41716" lon="1.65769">
        <ele>155.9</ele>
        <time>2017-06-04T06:48:16Z</time>
      </trkpt>
      <trkpt lat="49.41709" lon="1.65756">
        <ele>155.9</ele>
        <time>2017-06-04T06:48:19Z</time>
      </trkpt>
      <trkpt lat="49.41702" lon="1.65741">
        <ele>156</ele>
        <time>2017-06-04T06:48:23Z</time>
      </trkpt>
      <trkpt lat="49.41698" lon="1.65728">
        <ele>156.6</ele>
        <time>2017-06-04T06:48:28Z</time>
      </trkpt>
      <trkpt lat="49.41692" lon="1.65717">
        <ele>157.3</ele>
        <time>2017-06-04T06:48:32Z</time>
      </trkpt>
      <trkpt lat="49.41687" lon="1.65704">
        <ele>158.3</ele>
        <time>2017-06-04T06:48:37Z</time>
      </trkpt>
      <trkpt lat="49.41682" lon="1.65687">
        <ele>159.4</ele>
        <time>2017-06-04T06:48:42Z</time>
      </trkpt>
      <trkpt lat="49.41679" lon="1.65672">
        <ele>160.3</ele>
        <time>2017-06-04T06:48:46Z</time>
      </trkpt>
      <trkpt lat="49.41676" lon="1.65658">
        <ele>161.3</ele>
        <time>2017-06-04T06:48:50Z</time>
      </trkpt>
      <trkpt lat="49.41675" lon="1.65644">
        <ele>162.1</ele>
        <time>2017-06-04T06:48:54Z</time>
      </trkpt>
      <trkpt lat="49.41672" lon="1.65629">
        <ele>163</ele>
        <time>2017-06-04T06:48:58Z</time>
      </trkpt>
      <trkpt lat="49.41672" lon="1.65612">
        <ele>164</ele>
        <time>2017-06-04T06:49:03Z</time>
      </trkpt>
      <trkpt lat="49.41672" lon="1.65596">
        <ele>165</ele>
        <time>2017-06-04T06:49:08Z</time>
      </trkpt>
      <trkpt lat="49.41672" lon="1.65579">
        <ele>165.9</ele>
        <time>2017-06-04T06:49:13Z</time>
      </trkpt>
      <trkpt lat="49.41671" lon="1.65565">
        <ele>166.6</ele>
        <time>2017-06-04T06:49:17Z</time>
      </trkpt>
      <trkpt lat="49.41669" lon="1.6555">
        <ele>167.5</ele>
        <time>2017-06-04T06:49:22Z</time>
      </trkpt>
      <trkpt lat="49.41668" lon="1.65533">
        <ele>168.3</ele>
        <time>2017-06-04T06:49:27Z</time>
      </trkpt>
      <trkpt lat="49.41664" lon="1.65517">
        <ele>168.9</ele>
        <time>2017-06-04T06:49:31Z</time>
      </trkpt>
      <trkpt lat="49.41663" lon="1.65502">
        <ele>169.4</ele>
        <time>2017-06-04T06:49:35Z</time>
      </trkpt>
      <trkpt lat="49.41661" lon="1.65487">
        <ele>169.9</ele>
        <time>2017-06-04T06:49:39Z</time>
      </trkpt>
      <trkpt lat="49.41659" lon="1.6547">
        <ele>170.4</ele>
        <time>2017-06-04T06:49:43Z</time>
      </trkpt>
      <trkpt lat="49.4166" lon="1.65456">
        <ele>170.9</ele>
        <time>2017-06-04T06:49:47Z</time>
      </trkpt>
      <trkpt lat="49.4166" lon="1.65438">
        <ele>171.6</ele>
        <time>2017-06-04T06:49:52Z</time>
      </trkpt>
      <trkpt lat="49.41659" lon="1.6542">
        <ele>172.1</ele>
        <time>2017-06-04T06:49:56Z</time>
      </trkpt>
      <trkpt lat="49.41659" lon="1.65405">
        <ele>172.6</ele>
        <time>2017-06-04T06:50:00Z</time>
      </trkpt>
      <trkpt lat="49.4166" lon="1.65388">
        <ele>173</ele>
        <time>2017-06-04T06:50:04Z</time>
      </trkpt>
      <trkpt lat="49.41661" lon="1.65372">
        <ele>173.3</ele>
        <time>2017-06-04T06:50:08Z</time>
      </trkpt>
      <trkpt lat="49.41658" lon="1.65355">
        <ele>173.7</ele>
        <time>2017-06-04T06:50:12Z</time>
      </trkpt>
      <trkpt lat="49.41657" lon="1.65341">
        <ele>174</ele>
        <time>2017-06-04T06:50:15Z</time>
      </trkpt>
      <trkpt lat="49.41656" lon="1.65327">
        <ele>174.3</ele>
        <time>2017-06-04T06:50:18Z</time>
      </trkpt>
      <trkpt lat="49.41654" lon="1.65313">
        <ele>174.5</ele>
        <time>2017-06-04T06:50:21Z</time>
      </trkpt>
      <trkpt lat="49.41649" lon="1.65298">
        <ele>174.8</ele>
        <time>2017-06-04T06:50:24Z</time>
      </trkpt>
      <trkpt lat="49.41644" lon="1.65285">
        <ele>175.2</ele>
        <time>2017-06-04T06:50:27Z</time>
      </trkpt>
      <trkpt lat="49.41642" lon="1.65268">
        <ele>175.6</ele>
        <time>2017-06-04T06:50:31Z</time>
      </trkpt>
      <trkpt lat="49.41641" lon="1.65249">
        <ele>175.9</ele>
        <time>2017-06-04T06:50:35Z</time>
      </trkpt>
      <trkpt lat="49.41639" lon="1.65235">
        <ele>176.2</ele>
        <time>2017-06-04T06:50:38Z</time>
      </trkpt>
      <trkpt lat="49.41637" lon="1.6522">
        <ele>176.5</ele>
        <time>2017-06-04T06:50:41Z</time>
      </trkpt>
      <trkpt lat="49.41634" lon="1.65205">
        <ele>176.8</ele>
        <time>2017-06-04T06:50:44Z</time>
      </trkpt>
      <trkpt lat="49.41632" lon="1.6519">
        <ele>177.1</ele>
        <time>2017-06-04T06:50:47Z</time>
      </trkpt>
      <trkpt lat="49.41628" lon="1.65174">
        <ele>177.4</ele>
        <time>2017-06-04T06:50:50Z</time>
      </trkpt>
      <trkpt lat="49.41626" lon="1.6516">
        <ele>177.7</ele>
        <time>2017-06-04T06:50:53Z</time>
      </trkpt>
      <trkpt lat="49.41623" lon="1.65145">
        <ele>178</ele>
        <time>2017-06-04T06:50:56Z</time>
      </trkpt>
      <trkpt lat="49.4162" lon="1.65131">
        <ele>178.4</ele>
        <time>2017-06-04T06:50:59Z</time>
      </trkpt>
      <trkpt lat="49.41618" lon="1.65117">
        <ele>178.8</ele>
        <time>2017-06-04T06:51:02Z</time>
      </trkpt>
      <trkpt lat="49.41617" lon="1.65098">
        <ele>179.4</ele>
        <time>2017-06-04T06:51:06Z</time>
      </trkpt>
      <trkpt lat="49.41613" lon="1.65083">
        <ele>179.8</ele>
        <time>2017-06-04T06:51:09Z</time>
      </trkpt>
      <trkpt lat="49.41611" lon="1.65069">
        <ele>180.2</ele>
        <time>2017-06-04T06:51:12Z</time>
      </trkpt>
      <trkpt lat="49.41608" lon="1.65054">
        <ele>180.6</ele>
        <time>2017-06-04T06:51:15Z</time>
      </trkpt>
      <trkpt lat="49.41604" lon="1.6504">
        <ele>180.9</ele>
        <time>2017-06-04T06:51:18Z</time>
      </trkpt>
      <trkpt lat="49.416" lon="1.65025">
        <ele>181.2</ele>
        <time>2017-06-04T06:51:21Z</time>
      </trkpt>
      <trkpt lat="49.41596" lon="1.65011">
        <ele>181.5</ele>
        <time>2017-06-04T06:51:24Z</time>
      </trkpt>
      <trkpt lat="49.41592" lon="1.64993">
        <ele>182</ele>
        <time>2017-06-04T06:51:28Z</time>
      </trkpt>
      <trkpt lat="49.41589" lon="1.64978">
        <ele>182.3</ele>
        <time>2017-06-04T06:51:31Z</time>
      </trkpt>
      <trkpt lat="49.41586" lon="1.6496">
        <ele>182.7</ele>
        <time>2017-06-04T06:51:35Z</time>
      </trkpt>
      <trkpt lat="49.41581" lon="1.64948">
        <ele>182.8</ele>
        <time>2017-06-04T06:51:37Z</time>
      </trkpt>
      <trkpt lat="49.41574" lon="1.64931">
        <ele>183.1</ele>
        <time>2017-06-04T06:51:40Z</time>
      </trkpt>
      <trkpt lat="49.41568" lon="1.64914">
        <ele>183.2</ele>
        <time>2017-06-04T06:51:43Z</time>
      </trkpt>
      <trkpt lat="49.41563" lon="1.64898">
        <ele>183.4</ele>
        <time>2017-06-04T06:51:46Z</time>
      </trkpt>
      <trkpt lat="49.41557" lon="1.6488">
        <ele>183.5</ele>
        <time>2017-06-04T06:51:49Z</time>
      </trkpt>
      <trkpt lat="49.41552" lon="1.64867">
        <ele>183.6</ele>
        <time>2017-06-04T06:51:51Z</time>
      </trkpt>
      <trkpt lat="49.41546" lon="1.64849">
        <ele>183.7</ele>
        <time>2017-06-04T06:51:54Z</time>
      </trkpt>
      <trkpt lat="49.4154" lon="1.6483">
        <ele>183.8</ele>
        <time>2017-06-04T06:51:57Z</time>
      </trkpt>
      <trkpt lat="49.41535" lon="1.64818">
        <ele>183.8</ele>
        <time>2017-06-04T06:51:59Z</time>
      </trkpt>
      <trkpt lat="49.41529" lon="1.64805">
        <ele>183.9</ele>
        <time>2017-06-04T06:52:01Z</time>
      </trkpt>
      <trkpt lat="49.41524" lon="1.64792">
        <ele>183.9</ele>
        <time>2017-06-04T06:52:03Z</time>
      </trkpt>
      <trkpt lat="49.41518" lon="1.64779">
        <ele>183.9</ele>
        <time>2017-06-04T06:52:05Z</time>
      </trkpt>
      <trkpt lat="49.41512" lon="1.64765">
        <ele>183.8</ele>
        <time>2017-06-04T06:52:07Z</time>
      </trkpt>
      <trkpt lat="49.41506" lon="1.64751">
        <ele>183.8</ele>
        <time>2017-06-04T06:52:09Z</time>
      </trkpt>
      <trkpt lat="49.41501" lon="1.64737">
        <ele>183.8</ele>
        <time>2017-06-04T06:52:11Z</time>
      </trkpt>
      <trkpt lat="49.41495" lon="1.64722">
        <ele>183.6</ele>
        <time>2017-06-04T06:52:13Z</time>
      </trkpt>
      <trkpt lat="49.41489" lon="1.64708">
        <ele>183.5</ele>
        <time>2017-06-04T06:52:15Z</time>
      </trkpt>
      <trkpt lat="49.41482" lon="1.64694">
        <ele>183.4</ele>
        <time>2017-06-04T06:52:17Z</time>
      </trkpt>
      <trkpt lat="49.41477" lon="1.64681">
        <ele>183.1</ele>
        <time>2017-06-04T06:52:19Z</time>
      </trkpt>
      <trkpt lat="49.4147" lon="1.64668">
        <ele>182.8</ele>
        <time>2017-06-04T06:52:21Z</time>
      </trkpt>
      <trkpt lat="49.41465" lon="1.64653">
        <ele>182.6</ele>
        <time>2017-06-04T06:52:23Z</time>
      </trkpt>
      <trkpt lat="49.41459" lon="1.64639">
        <ele>182.3</ele>
        <time>2017-06-04T06:52:25Z</time>
      </trkpt>
      <trkpt lat="49.41452" lon="1.64626">
        <ele>181.9</ele>
        <time>2017-06-04T06:52:27Z</time>
      </trkpt>
      <trkpt lat="49.41445" lon="1.6461">
        <ele>181.5</ele>
        <time>2017-06-04T06:52:29Z</time>
      </trkpt>
      <trkpt lat="49.41438" lon="1.64597">
        <ele>181.1</ele>
        <time>2017-06-04T06:52:31Z</time>
      </trkpt>
      <trkpt lat="49.41433" lon="1.64585">
        <ele>180.7</ele>
        <time>2017-06-04T06:52:33Z</time>
      </trkpt>
      <trkpt lat="49.41427" lon="1.64574">
        <ele>180.3</ele>
        <time>2017-06-04T06:52:35Z</time>
      </trkpt>
      <trkpt lat="49.41421" lon="1.64561">
        <ele>179.8</ele>
        <time>2017-06-04T06:52:37Z</time>
      </trkpt>
      <trkpt lat="49.41415" lon="1.64547">
        <ele>179.3</ele>
        <time>2017-06-04T06:52:39Z</time>
      </trkpt>
      <trkpt lat="49.41409" lon="1.64532">
        <ele>178.8</ele>
        <time>2017-06-04T06:52:41Z</time>
      </trkpt>
      <trkpt lat="49.41403" lon="1.64517">
        <ele>178.3</ele>
        <time>2017-06-04T06:52:43Z</time>
      </trkpt>
      <trkpt lat="49.41396" lon="1.645">
        <ele>177.7</ele>
        <time>2017-06-04T06:52:45Z</time>
      </trkpt>
      <trkpt lat="49.41389" lon="1.64483">
        <ele>177.1</ele>
        <time>2017-06-04T06:52:47Z</time>
      </trkpt>
      <trkpt lat="49.41381" lon="1.64466">
        <ele>176.6</ele>
        <time>2017-06-04T06:52:49Z</time>
      </trkpt>
      <trkpt lat="49.41374" lon="1.64448">
        <ele>176</ele>
        <time>2017-06-04T06:52:51Z</time>
      </trkpt>
      <trkpt lat="49.41366" lon="1.6443">
        <ele>175.4</ele>
        <time>2017-06-04T06:52:53Z</time>
      </trkpt>
      <trkpt lat="49.41359" lon="1.64414">
        <ele>174.8</ele>
        <time>2017-06-04T06:52:55Z</time>
      </trkpt>
      <trkpt lat="49.41353" lon="1.64399">
        <ele>174.2</ele>
        <time>2017-06-04T06:52:57Z</time>
      </trkpt>
      <trkpt lat="49.41346" lon="1.64384">
        <ele>173.6</ele>
        <time>2017-06-04T06:52:59Z</time>
      </trkpt>
      <trkpt lat="49.41339" lon="1.64367">
        <ele>173</ele>
        <time>2017-06-04T06:53:01Z</time>
      </trkpt>
      <trkpt lat="49.41332" lon="1.64351">
        <ele>172.3</ele>
        <time>2017-06-04T06:53:03Z</time>
      </trkpt>
      <trkpt lat="49.41326" lon="1.64335">
        <ele>171.7</ele>
        <time>2017-06-04T06:53:05Z</time>
      </trkpt>
      <trkpt lat="49.4132" lon="1.6432">
        <ele>171</ele>
        <time>2017-06-04T06:53:07Z</time>
      </trkpt>
      <trkpt lat="49.41314" lon="1.64306">
        <ele>170.3</ele>
        <time>2017-06-04T06:53:09Z</time>
      </trkpt>
      <trkpt lat="49.41308" lon="1.64292">
        <ele>169.7</ele>
        <time>2017-06-04T06:53:11Z</time>
      </trkpt>
      <trkpt lat="49.41303" lon="1.64279">
        <ele>169.1</ele>
        <time>2017-06-04T06:53:13Z</time>
      </trkpt>
      <trkpt lat="49.41297" lon="1.64266">
        <ele>168.5</ele>
        <time>2017-06-04T06:53:15Z</time>
      </trkpt>
      <trkpt lat="49.41291" lon="1.64252">
        <ele>168</ele>
        <time>2017-06-04T06:53:17Z</time>
      </trkpt>
      <trkpt lat="49.41286" lon="1.64239">
        <ele>167.4</ele>
        <time>2017-06-04T06:53:19Z</time>
      </trkpt>
      <trkpt lat="49.4128" lon="1.64227">
        <ele>166.9</ele>
        <time>2017-06-04T06:53:21Z</time>
      </trkpt>
      <trkpt lat="49.41275" lon="1.64214">
        <ele>166.4</ele>
        <time>2017-06-04T06:53:23Z</time>
      </trkpt>
      <trkpt lat="49.41269" lon="1.64199">
        <ele>166</ele>
        <time>2017-06-04T06:53:25Z</time>
      </trkpt>
      <trkpt lat="49.41264" lon="1.64183">
        <ele>165.6</ele>
        <time>2017-06-04T06:53:27Z</time>
      </trkpt>
      <trkpt lat="49.41259" lon="1.64166">
        <ele>165.2</ele>
        <time>2017-06-04T06:53:29Z</time>
      </trkpt>
      <trkpt lat="49.41254" lon="1.6415">
        <ele>164.8</ele>
        <time>2017-06-04T06:53:31Z</time>
      </trkpt>
      <trkpt lat="49.41249" lon="1.64133">
        <ele>164.5</ele>
        <time>2017-06-04T06:53:33Z</time>
      </trkpt>
      <trkpt lat="49.41244" lon="1.64117">
        <ele>164.2</ele>
        <time>2017-06-04T06:53:35Z</time>
      </trkpt>
      <trkpt lat="49.41239" lon="1.64102">
        <ele>164</ele>
        <time>2017-06-04T06:53:37Z</time>
      </trkpt>
      <trkpt lat="49.41235" lon="1.64088">
        <ele>163.8</ele>
        <time>2017-06-04T06:53:39Z</time>
      </trkpt>
      <trkpt lat="49.41228" lon="1.64075">
        <ele>163.6</ele>
        <time>2017-06-04T06:53:41Z</time>
      </trkpt>
      <trkpt lat="49.41222" lon="1.64062">
        <ele>163.4</ele>
        <time>2017-06-04T06:53:43Z</time>
      </trkpt>
      <trkpt lat="49.41216" lon="1.64048">
        <ele>163.3</ele>
        <time>2017-06-04T06:53:45Z</time>
      </trkpt>
      <trkpt lat="49.4121" lon="1.64035">
        <ele>163.2</ele>
        <time>2017-06-04T06:53:47Z</time>
      </trkpt>
      <trkpt lat="49.41203" lon="1.64021">
        <ele>163</ele>
        <time>2017-06-04T06:53:49Z</time>
      </trkpt>
      <trkpt lat="49.41196" lon="1.64008">
        <ele>162.9</ele>
        <time>2017-06-04T06:53:51Z</time>
      </trkpt>
      <trkpt lat="49.4119" lon="1.63994">
        <ele>162.9</ele>
        <time>2017-06-04T06:53:53Z</time>
      </trkpt>
      <trkpt lat="49.41183" lon="1.63981">
        <ele>162.8</ele>
        <time>2017-06-04T06:53:55Z</time>
      </trkpt>
      <trkpt lat="49.41178" lon="1.63968">
        <ele>162.7</ele>
        <time>2017-06-04T06:53:57Z</time>
      </trkpt>
      <trkpt lat="49.41172" lon="1.63954">
        <ele>162.6</ele>
        <time>2017-06-04T06:53:59Z</time>
      </trkpt>
      <trkpt lat="49.41167" lon="1.6394">
        <ele>162.6</ele>
        <time>2017-06-04T06:54:01Z</time>
      </trkpt>
      <trkpt lat="49.4116" lon="1.63927">
        <ele>162.6</ele>
        <time>2017-06-04T06:54:03Z</time>
      </trkpt>
      <trkpt lat="49.41154" lon="1.63914">
        <ele>162.5</ele>
        <time>2017-06-04T06:54:05Z</time>
      </trkpt>
      <trkpt lat="49.41148" lon="1.63901">
        <ele>162.4</ele>
        <time>2017-06-04T06:54:07Z</time>
      </trkpt>
      <trkpt lat="49.41141" lon="1.63886">
        <ele>162.3</ele>
        <time>2017-06-04T06:54:09Z</time>
      </trkpt>
      <trkpt lat="49.41134" lon="1.6387">
        <ele>162.2</ele>
        <time>2017-06-04T06:54:11Z</time>
      </trkpt>
      <trkpt lat="49.41121" lon="1.63852">
        <ele>162.1</ele>
        <time>2017-06-04T06:54:13Z</time>
      </trkpt>
      <trkpt lat="49.41113" lon="1.63837">
        <ele>162</ele>
        <time>2017-06-04T06:54:15Z</time>
      </trkpt>
      <trkpt lat="49.41108" lon="1.63822">
        <ele>161.9</ele>
        <time>2017-06-04T06:54:17Z</time>
      </trkpt>
      <trkpt lat="49.411" lon="1.63807">
        <ele>161.7</ele>
        <time>2017-06-04T06:54:19Z</time>
      </trkpt>
      <trkpt lat="49.41093" lon="1.6379">
        <ele>161.5</ele>
        <time>2017-06-04T06:54:21Z</time>
      </trkpt>
      <trkpt lat="49.41085" lon="1.63774">
        <ele>161.2</ele>
        <time>2017-06-04T06:54:23Z</time>
      </trkpt>
      <trkpt lat="49.41078" lon="1.63759">
        <ele>160.9</ele>
        <time>2017-06-04T06:54:25Z</time>
      </trkpt>
      <trkpt lat="49.41072" lon="1.63745">
        <ele>160.5</ele>
        <time>2017-06-04T06:54:27Z</time>
      </trkpt>
      <trkpt lat="49.41066" lon="1.63734">
        <ele>160.1</ele>
        <time>2017-06-04T06:54:29Z</time>
      </trkpt>
      <trkpt lat="49.4106" lon="1.6372">
        <ele>159.7</ele>
        <time>2017-06-04T06:54:31Z</time>
      </trkpt>
      <trkpt lat="49.41053" lon="1.63706">
        <ele>159.2</ele>
        <time>2017-06-04T06:54:33Z</time>
      </trkpt>
      <trkpt lat="49.41049" lon="1.63694">
        <ele>158.8</ele>
        <time>2017-06-04T06:54:35Z</time>
      </trkpt>
      <trkpt lat="49.4104" lon="1.63678">
        <ele>158.2</ele>
        <time>2017-06-04T06:54:37Z</time>
      </trkpt>
      <trkpt lat="49.41034" lon="1.63667">
        <ele>157.7</ele>
        <time>2017-06-04T06:54:39Z</time>
      </trkpt>
      <trkpt lat="49.41029" lon="1.63656">
        <ele>157.1</ele>
        <time>2017-06-04T06:54:41Z</time>
      </trkpt>
      <trkpt lat="49.41022" lon="1.63645">
        <ele>156.3</ele>
        <time>2017-06-04T06:54:44Z</time>
      </trkpt>
      <trkpt lat="49.41012" lon="1.63634">
        <ele>155.3</ele>
        <time>2017-06-04T06:54:47Z</time>
      </trkpt>
      <trkpt lat="49.41003" lon="1.63624">
        <ele>154.3</ele>
        <time>2017-06-04T06:54:50Z</time>
      </trkpt>
      <trkpt lat="49.40994" lon="1.63614">
        <ele>153.3</ele>
        <time>2017-06-04T06:54:53Z</time>
      </trkpt>
      <trkpt lat="49.40986" lon="1.63604">
        <ele>152.3</ele>
        <time>2017-06-04T06:54:56Z</time>
      </trkpt>
      <trkpt lat="49.40976" lon="1.63597">
        <ele>151.2</ele>
        <time>2017-06-04T06:54:59Z</time>
      </trkpt>
      <trkpt lat="49.40968" lon="1.63589">
        <ele>150.2</ele>
        <time>2017-06-04T06:55:02Z</time>
      </trkpt>
      <trkpt lat="49.40956" lon="1.63578">
        <ele>149.1</ele>
        <time>2017-06-04T06:55:05Z</time>
      </trkpt>
      <trkpt lat="49.40947" lon="1.63571">
        <ele>148.1</ele>
        <time>2017-06-04T06:55:08Z</time>
      </trkpt>
      <trkpt lat="49.40938" lon="1.63563">
        <ele>147</ele>
        <time>2017-06-04T06:55:11Z</time>
      </trkpt>
      <trkpt lat="49.40928" lon="1.63557">
        <ele>146</ele>
        <time>2017-06-04T06:55:14Z</time>
      </trkpt>
      <trkpt lat="49.40918" lon="1.63552">
        <ele>144.9</ele>
        <time>2017-06-04T06:55:17Z</time>
      </trkpt>
      <trkpt lat="49.40907" lon="1.63546">
        <ele>143.7</ele>
        <time>2017-06-04T06:55:21Z</time>
      </trkpt>
      <trkpt lat="49.40898" lon="1.63542">
        <ele>142.7</ele>
        <time>2017-06-04T06:55:24Z</time>
      </trkpt>
      <trkpt lat="49.40889" lon="1.63535">
        <ele>141.9</ele>
        <time>2017-06-04T06:55:27Z</time>
      </trkpt>
      <trkpt lat="49.4088" lon="1.63525">
        <ele>141.1</ele>
        <time>2017-06-04T06:55:30Z</time>
      </trkpt>
      <trkpt lat="49.40869" lon="1.63516">
        <ele>140.3</ele>
        <time>2017-06-04T06:55:33Z</time>
      </trkpt>
      <trkpt lat="49.40861" lon="1.6351">
        <ele>139.9</ele>
        <time>2017-06-04T06:55:35Z</time>
      </trkpt>
      <trkpt lat="49.40853" lon="1.63502">
        <ele>139.4</ele>
        <time>2017-06-04T06:55:37Z</time>
      </trkpt>
      <trkpt lat="49.40844" lon="1.63495">
        <ele>138.9</ele>
        <time>2017-06-04T06:55:39Z</time>
      </trkpt>
      <trkpt lat="49.40833" lon="1.63483">
        <ele>138.1</ele>
        <time>2017-06-04T06:55:42Z</time>
      </trkpt>
      <trkpt lat="49.40825" lon="1.63474">
        <ele>137.4</ele>
        <time>2017-06-04T06:55:45Z</time>
      </trkpt>
      <trkpt lat="49.40817" lon="1.63461">
        <ele>136.4</ele>
        <time>2017-06-04T06:55:49Z</time>
      </trkpt>
      <trkpt lat="49.40807" lon="1.63449">
        <ele>135.8</ele>
        <time>2017-06-04T06:55:52Z</time>
      </trkpt>
      <trkpt lat="49.408" lon="1.63437">
        <ele>135.1</ele>
        <time>2017-06-04T06:55:55Z</time>
      </trkpt>
      <trkpt lat="49.40792" lon="1.63424">
        <ele>134.5</ele>
        <time>2017-06-04T06:55:58Z</time>
      </trkpt>
      <trkpt lat="49.40786" lon="1.63411">
        <ele>133.7</ele>
        <time>2017-06-04T06:56:01Z</time>
      </trkpt>
      <trkpt lat="49.40777" lon="1.63396">
        <ele>132.8</ele>
        <time>2017-06-04T06:56:04Z</time>
      </trkpt>
      <trkpt lat="49.40767" lon="1.63384">
        <ele>132.1</ele>
        <time>2017-06-04T06:56:06Z</time>
      </trkpt>
      <trkpt lat="49.4076" lon="1.63368">
        <ele>131.4</ele>
        <time>2017-06-04T06:56:08Z</time>
      </trkpt>
      <trkpt lat="49.40755" lon="1.63354">
        <ele>130.8</ele>
        <time>2017-06-04T06:56:10Z</time>
      </trkpt>
      <trkpt lat="49.40749" lon="1.6334">
        <ele>130</ele>
        <time>2017-06-04T06:56:12Z</time>
      </trkpt>
      <trkpt lat="49.40747" lon="1.63326">
        <ele>129.3</ele>
        <time>2017-06-04T06:56:14Z</time>
      </trkpt>
      <trkpt lat="49.40745" lon="1.63309">
        <ele>128.5</ele>
        <time>2017-06-04T06:56:16Z</time>
      </trkpt>
      <trkpt lat="49.40743" lon="1.63292">
        <ele>127.7</ele>
        <time>2017-06-04T06:56:18Z</time>
      </trkpt>
      <trkpt lat="49.4074" lon="1.63274">
        <ele>126.9</ele>
        <time>2017-06-04T06:56:20Z</time>
      </trkpt>
      <trkpt lat="49.40736" lon="1.63256">
        <ele>126.1</ele>
        <time>2017-06-04T06:56:22Z</time>
      </trkpt>
      <trkpt lat="49.40731" lon="1.63238">
        <ele>125.4</ele>
        <time>2017-06-04T06:56:24Z</time>
      </trkpt>
      <trkpt lat="49.40728" lon="1.6322">
        <ele>124.7</ele>
        <time>2017-06-04T06:56:26Z</time>
      </trkpt>
      <trkpt lat="49.40728" lon="1.63202">
        <ele>123.9</ele>
        <time>2017-06-04T06:56:28Z</time>
      </trkpt>
      <trkpt lat="49.40727" lon="1.63178">
        <ele>123.1</ele>
        <time>2017-06-04T06:56:30Z</time>
      </trkpt>
      <trkpt lat="49.40725" lon="1.63159">
        <ele>122.3</ele>
        <time>2017-06-04T06:56:32Z</time>
      </trkpt>
      <trkpt lat="49.40722" lon="1.63143">
        <ele>121.6</ele>
        <time>2017-06-04T06:56:34Z</time>
      </trkpt>
      <trkpt lat="49.40717" lon="1.6313">
        <ele>121</ele>
        <time>2017-06-04T06:56:36Z</time>
      </trkpt>
      <trkpt lat="49.4071" lon="1.63116">
        <ele>120.2</ele>
        <time>2017-06-04T06:56:39Z</time>
      </trkpt>
      <trkpt lat="49.40704" lon="1.63102">
        <ele>119.2</ele>
        <time>2017-06-04T06:56:43Z</time>
      </trkpt>
      <trkpt lat="49.40701" lon="1.63089">
        <ele>118.2</ele>
        <time>2017-06-04T06:56:49Z</time>
      </trkpt>
      <trkpt lat="49.40695" lon="1.63078">
        <ele>115.4</ele>
        <time>2017-06-04T06:59:29Z</time>
      </trkpt>
      <trkpt lat="49.40695" lon="1.63061">
        <ele>115.4</ele>
        <time>2017-06-04T06:59:35Z</time>
      </trkpt>
      <trkpt lat="49.40699" lon="1.63048">
        <ele>115.4</ele>
        <time>2017-06-04T06:59:38Z</time>
      </trkpt>
      <trkpt lat="49.40706" lon="1.63035">
        <ele>115.5</ele>
        <time>2017-06-04T06:59:41Z</time>
      </trkpt>
      <trkpt lat="49.40714" lon="1.63023">
        <ele>115.5</ele>
        <time>2017-06-04T06:59:44Z</time>
      </trkpt>
      <trkpt lat="49.40722" lon="1.63014">
        <ele>115.5</ele>
        <time>2017-06-04T06:59:47Z</time>
      </trkpt>
      <trkpt lat="49.40732" lon="1.63005">
        <ele>115.6</ele>
        <time>2017-06-04T06:59:50Z</time>
      </trkpt>
      <trkpt lat="49.4074" lon="1.62999">
        <ele>115.7</ele>
        <time>2017-06-04T06:59:53Z</time>
      </trkpt>
      <trkpt lat="49.40751" lon="1.62994">
        <ele>116</ele>
        <time>2017-06-04T06:59:57Z</time>
      </trkpt>
      <trkpt lat="49.40758" lon="1.62987">
        <ele>117.5</ele>
        <time>2017-06-04T07:00:19Z</time>
      </trkpt>
      <trkpt lat="49.40767" lon="1.62984">
        <ele>118.6</ele>
        <time>2017-06-04T07:01:51Z</time>
      </trkpt>
      <trkpt lat="49.40777" lon="1.62982">
        <ele>118.6</ele>
        <time>2017-06-04T07:02:46Z</time>
      </trkpt>
      <trkpt lat="49.40784" lon="1.6297">
        <ele>118.6</ele>
        <time>2017-06-04T07:02:49Z</time>
      </trkpt>
      <trkpt lat="49.40791" lon="1.62955">
        <ele>118.6</ele>
        <time>2017-06-04T07:02:52Z</time>
      </trkpt>
      <trkpt lat="49.40797" lon="1.62942">
        <ele>118.6</ele>
        <time>2017-06-04T07:02:55Z</time>
      </trkpt>
      <trkpt lat="49.40803" lon="1.6293">
        <ele>118.7</ele>
        <time>2017-06-04T07:02:59Z</time>
      </trkpt>
      <trkpt lat="49.40813" lon="1.62924">
        <ele>118.9</ele>
        <time>2017-06-04T07:03:03Z</time>
      </trkpt>
      <trkpt lat="49.40824" lon="1.62917">
        <ele>119</ele>
        <time>2017-06-04T07:03:07Z</time>
      </trkpt>
      <trkpt lat="49.40833" lon="1.62911">
        <ele>119.2</ele>
        <time>2017-06-04T07:03:10Z</time>
      </trkpt>
      <trkpt lat="49.40845" lon="1.62908">
        <ele>119.3</ele>
        <time>2017-06-04T07:03:13Z</time>
      </trkpt>
      <trkpt lat="49.40857" lon="1.62905">
        <ele>119.4</ele>
        <time>2017-06-04T07:03:16Z</time>
      </trkpt>
      <trkpt lat="49.40868" lon="1.62902">
        <ele>119.5</ele>
        <time>2017-06-04T07:03:19Z</time>
      </trkpt>
      <trkpt lat="49.40877" lon="1.62902">
        <ele>119.6</ele>
        <time>2017-06-04T07:03:21Z</time>
      </trkpt>
      <trkpt lat="49.40886" lon="1.629">
        <ele>119.6</ele>
        <time>2017-06-04T07:03:23Z</time>
      </trkpt>
      <trkpt lat="49.40899" lon="1.629">
        <ele>119.7</ele>
        <time>2017-06-04T07:03:26Z</time>
      </trkpt>
      <trkpt lat="49.40909" lon="1.62912">
        <ele>119.6</ele>
        <time>2017-06-04T07:03:29Z</time>
      </trkpt>
      <trkpt lat="49.40912" lon="1.62928">
        <ele>119.4</ele>
        <time>2017-06-04T07:03:32Z</time>
      </trkpt>
      <trkpt lat="49.40916" lon="1.62945">
        <ele>119.2</ele>
        <time>2017-06-04T07:03:35Z</time>
      </trkpt>
      <trkpt lat="49.40924" lon="1.62955">
        <ele>119</ele>
        <time>2017-06-04T07:03:37Z</time>
      </trkpt>
      <trkpt lat="49.40935" lon="1.62964">
        <ele>118.6</ele>
        <time>2017-06-04T07:03:41Z</time>
      </trkpt>
      <trkpt lat="49.40946" lon="1.62967">
        <ele>118.3</ele>
        <time>2017-06-04T07:03:44Z</time>
      </trkpt>
      <trkpt lat="49.40957" lon="1.62969">
        <ele>118</ele>
        <time>2017-06-04T07:03:47Z</time>
      </trkpt>
      <trkpt lat="49.40967" lon="1.62972">
        <ele>117.8</ele>
        <time>2017-06-04T07:03:50Z</time>
      </trkpt>
      <trkpt lat="49.40979" lon="1.62969">
        <ele>117.6</ele>
        <time>2017-06-04T07:03:53Z</time>
      </trkpt>
      <trkpt lat="49.40989" lon="1.62961">
        <ele>117.6</ele>
        <time>2017-06-04T07:03:56Z</time>
      </trkpt>
      <trkpt lat="49.40999" lon="1.62954">
        <ele>117.6</ele>
        <time>2017-06-04T07:03:59Z</time>
      </trkpt>
      <trkpt lat="49.41006" lon="1.62941">
        <ele>117.7</ele>
        <time>2017-06-04T07:04:03Z</time>
      </trkpt>
      <trkpt lat="49.41011" lon="1.62929">
        <ele>117.9</ele>
        <time>2017-06-04T07:04:07Z</time>
      </trkpt>
      <trkpt lat="49.41017" lon="1.62916">
        <ele>118.3</ele>
        <time>2017-06-04T07:04:11Z</time>
      </trkpt>
      <trkpt lat="49.4102" lon="1.62902">
        <ele>118.9</ele>
        <time>2017-06-04T07:04:16Z</time>
      </trkpt>
      <trkpt lat="49.41024" lon="1.62887">
        <ele>119.4</ele>
        <time>2017-06-04T07:04:20Z</time>
      </trkpt>
      <trkpt lat="49.41029" lon="1.62871">
        <ele>119.8</ele>
        <time>2017-06-04T07:04:24Z</time>
      </trkpt>
      <trkpt lat="49.41033" lon="1.62856">
        <ele>120</ele>
        <time>2017-06-04T07:04:27Z</time>
      </trkpt>
      <trkpt lat="49.41038" lon="1.6284">
        <ele>120.3</ele>
        <time>2017-06-04T07:04:30Z</time>
      </trkpt>
      <trkpt lat="49.41041" lon="1.62821">
        <ele>120.4</ele>
        <time>2017-06-04T07:04:33Z</time>
      </trkpt>
      <trkpt lat="49.41044" lon="1.62802">
        <ele>120.6</ele>
        <time>2017-06-04T07:04:36Z</time>
      </trkpt>
      <trkpt lat="49.41047" lon="1.62783">
        <ele>120.7</ele>
        <time>2017-06-04T07:04:39Z</time>
      </trkpt>
      <trkpt lat="49.41048" lon="1.62764">
        <ele>120.8</ele>
        <time>2017-06-04T07:04:42Z</time>
      </trkpt>
      <trkpt lat="49.41049" lon="1.6275">
        <ele>120.9</ele>
        <time>2017-06-04T07:04:44Z</time>
      </trkpt>
      <trkpt lat="49.41052" lon="1.62736">
        <ele>120.9</ele>
        <time>2017-06-04T07:04:46Z</time>
      </trkpt>
      <trkpt lat="49.41054" lon="1.62721">
        <ele>121</ele>
        <time>2017-06-04T07:04:48Z</time>
      </trkpt>
      <trkpt lat="49.41057" lon="1.62706">
        <ele>121</ele>
        <time>2017-06-04T07:04:50Z</time>
      </trkpt>
      <trkpt lat="49.41059" lon="1.6269">
        <ele>121</ele>
        <time>2017-06-04T07:04:52Z</time>
      </trkpt>
      <trkpt lat="49.41062" lon="1.62675">
        <ele>121.1</ele>
        <time>2017-06-04T07:04:54Z</time>
      </trkpt>
      <trkpt lat="49.41064" lon="1.62659">
        <ele>121.1</ele>
        <time>2017-06-04T07:04:56Z</time>
      </trkpt>
      <trkpt lat="49.41067" lon="1.62644">
        <ele>121.1</ele>
        <time>2017-06-04T07:04:58Z</time>
      </trkpt>
      <trkpt lat="49.41069" lon="1.62629">
        <ele>121.1</ele>
        <time>2017-06-04T07:05:00Z</time>
      </trkpt>
      <trkpt lat="49.41071" lon="1.62614">
        <ele>121</ele>
        <time>2017-06-04T07:05:02Z</time>
      </trkpt>
      <trkpt lat="49.41072" lon="1.626">
        <ele>121</ele>
        <time>2017-06-04T07:05:04Z</time>
      </trkpt>
      <trkpt lat="49.41073" lon="1.62586">
        <ele>121</ele>
        <time>2017-06-04T07:05:06Z</time>
      </trkpt>
      <trkpt lat="49.41075" lon="1.62572">
        <ele>121</ele>
        <time>2017-06-04T07:05:08Z</time>
      </trkpt>
      <trkpt lat="49.41079" lon="1.62552">
        <ele>121</ele>
        <time>2017-06-04T07:05:11Z</time>
      </trkpt>
      <trkpt lat="49.41082" lon="1.62537">
        <ele>120.9</ele>
        <time>2017-06-04T07:05:13Z</time>
      </trkpt>
      <trkpt lat="49.41086" lon="1.62523">
        <ele>120.9</ele>
        <time>2017-06-04T07:05:15Z</time>
      </trkpt>
      <trkpt lat="49.41091" lon="1.62511">
        <ele>120.9</ele>
        <time>2017-06-04T07:05:17Z</time>
      </trkpt>
      <trkpt lat="49.41097" lon="1.62499">
        <ele>120.9</ele>
        <time>2017-06-04T07:05:19Z</time>
      </trkpt>
      <trkpt lat="49.41107" lon="1.62486">
        <ele>120.9</ele>
        <time>2017-06-04T07:05:22Z</time>
      </trkpt>
      <trkpt lat="49.41117" lon="1.62475">
        <ele>120.8</ele>
        <time>2017-06-04T07:05:25Z</time>
      </trkpt>
      <trkpt lat="49.41126" lon="1.62473">
        <ele>120.8</ele>
        <time>2017-06-04T07:05:29Z</time>
      </trkpt>
      <trkpt lat="49.41134" lon="1.62481">
        <ele>120.8</ele>
        <time>2017-06-04T07:05:36Z</time>
      </trkpt>
      <trkpt lat="49.41143" lon="1.62486">
        <ele>121.3</ele>
        <time>2017-06-04T07:05:42Z</time>
      </trkpt>
      <trkpt lat="49.41153" lon="1.62489">
        <ele>121.7</ele>
        <time>2017-06-04T07:05:47Z</time>
      </trkpt>
      <trkpt lat="49.41163" lon="1.6249">
        <ele>122</ele>
        <time>2017-06-04T07:05:52Z</time>
      </trkpt>
      <trkpt lat="49.41173" lon="1.62493">
        <ele>122.2</ele>
        <time>2017-06-04T07:05:56Z</time>
      </trkpt>
      <trkpt lat="49.41182" lon="1.62495">
        <ele>122.3</ele>
        <time>2017-06-04T07:05:59Z</time>
      </trkpt>
      <trkpt lat="49.41192" lon="1.62498">
        <ele>122.4</ele>
        <time>2017-06-04T07:06:02Z</time>
      </trkpt>
      <trkpt lat="49.41204" lon="1.62499">
        <ele>122.4</ele>
        <time>2017-06-04T07:06:05Z</time>
      </trkpt>
      <trkpt lat="49.41213" lon="1.62503">
        <ele>122.5</ele>
        <time>2017-06-04T07:06:08Z</time>
      </trkpt>
      <trkpt lat="49.4122" lon="1.62512">
        <ele>122.5</ele>
        <time>2017-06-04T07:06:13Z</time>
      </trkpt>
      <trkpt lat="49.41227" lon="1.62521">
        <ele>122.5</ele>
        <time>2017-06-04T07:06:18Z</time>
      </trkpt>
      <trkpt lat="49.41234" lon="1.62533">
        <ele>122.8</ele>
        <time>2017-06-04T07:06:24Z</time>
      </trkpt>
      <trkpt lat="49.41242" lon="1.62541">
        <ele>123.6</ele>
        <time>2017-06-04T07:06:31Z</time>
      </trkpt>
      <trkpt lat="49.41249" lon="1.62551">
        <ele>124.7</ele>
        <time>2017-06-04T07:06:39Z</time>
      </trkpt>
      <trkpt lat="49.41257" lon="1.62559">
        <ele>126.1</ele>
        <time>2017-06-04T07:06:46Z</time>
      </trkpt>
      <trkpt lat="49.41264" lon="1.6257">
        <ele>127.6</ele>
        <time>2017-06-04T07:06:54Z</time>
      </trkpt>
      <trkpt lat="49.41272" lon="1.62579">
        <ele>128.9</ele>
        <time>2017-06-04T07:07:00Z</time>
      </trkpt>
      <trkpt lat="49.41279" lon="1.62589">
        <ele>130.9</ele>
        <time>2017-06-04T07:07:10Z</time>
      </trkpt>
      <trkpt lat="49.41287" lon="1.62596">
        <ele>132.5</ele>
        <time>2017-06-04T07:07:18Z</time>
      </trkpt>
      <trkpt lat="49.41296" lon="1.62603">
        <ele>134.4</ele>
        <time>2017-06-04T07:07:26Z</time>
      </trkpt>
      <trkpt lat="49.41304" lon="1.6261">
        <ele>135.9</ele>
        <time>2017-06-04T07:07:33Z</time>
      </trkpt>
      <trkpt lat="49.41311" lon="1.6262">
        <ele>137.9</ele>
        <time>2017-06-04T07:07:43Z</time>
      </trkpt>
      <trkpt lat="49.41318" lon="1.62629">
        <ele>139.8</ele>
        <time>2017-06-04T07:07:53Z</time>
      </trkpt>
      <trkpt lat="49.41326" lon="1.62637">
        <ele>142.1</ele>
        <time>2017-06-04T07:08:04Z</time>
      </trkpt>
      <trkpt lat="49.41332" lon="1.62647">
        <ele>144.1</ele>
        <time>2017-06-04T07:08:15Z</time>
      </trkpt>
      <trkpt lat="49.41341" lon="1.62655">
        <ele>145.4</ele>
        <time>2017-06-04T07:08:22Z</time>
      </trkpt>
      <trkpt lat="49.41349" lon="1.62661">
        <ele>147.6</ele>
        <time>2017-06-04T07:08:38Z</time>
      </trkpt>
      <trkpt lat="49.41353" lon="1.62674">
        <ele>148.6</ele>
        <time>2017-06-04T07:09:30Z</time>
      </trkpt>
      <trkpt lat="49.41363" lon="1.62671">
        <ele>148.5</ele>
        <time>2017-06-04T07:09:56Z</time>
      </trkpt>
      <trkpt lat="49.41374" lon="1.62671">
        <ele>148.7</ele>
        <time>2017-06-04T07:10:04Z</time>
      </trkpt>
      <trkpt lat="49.41383" lon="1.62672">
        <ele>149.4</ele>
        <time>2017-06-04T07:10:12Z</time>
      </trkpt>
      <trkpt lat="49.41392" lon="1.62674">
        <ele>150</ele>
        <time>2017-06-04T07:10:18Z</time>
      </trkpt>
      <trkpt lat="49.41402" lon="1.62675">
        <ele>150.4</ele>
        <time>2017-06-04T07:10:24Z</time>
      </trkpt>
      <trkpt lat="49.41411" lon="1.62673">
        <ele>150.9</ele>
        <time>2017-06-04T07:10:29Z</time>
      </trkpt>
      <trkpt lat="49.41422" lon="1.62672">
        <ele>151.4</ele>
        <time>2017-06-04T07:10:35Z</time>
      </trkpt>
      <trkpt lat="49.41431" lon="1.62672">
        <ele>151.7</ele>
        <time>2017-06-04T07:10:39Z</time>
      </trkpt>
      <trkpt lat="49.4144" lon="1.62676">
        <ele>152.2</ele>
        <time>2017-06-04T07:10:43Z</time>
      </trkpt>
      <trkpt lat="49.4145" lon="1.62677">
        <ele>152.8</ele>
        <time>2017-06-04T07:10:48Z</time>
      </trkpt>
      <trkpt lat="49.41461" lon="1.62677">
        <ele>153.5</ele>
        <time>2017-06-04T07:10:53Z</time>
      </trkpt>
      <trkpt lat="49.41471" lon="1.62672">
        <ele>154</ele>
        <time>2017-06-04T07:10:57Z</time>
      </trkpt>
      <trkpt lat="49.41477" lon="1.62661">
        <ele>154.5</ele>
        <time>2017-06-04T07:11:02Z</time>
      </trkpt>
      <trkpt lat="49.41476" lon="1.62644">
        <ele>154.6</ele>
        <time>2017-06-04T07:11:06Z</time>
      </trkpt>
      <trkpt lat="49.41475" lon="1.62628">
        <ele>154.4</ele>
        <time>2017-06-04T07:11:10Z</time>
      </trkpt>
      <trkpt lat="49.41472" lon="1.62613">
        <ele>153.6</ele>
        <time>2017-06-04T07:11:15Z</time>
      </trkpt>
      <trkpt lat="49.41465" lon="1.62602">
        <ele>152.8</ele>
        <time>2017-06-04T07:11:19Z</time>
      </trkpt>
      <trkpt lat="49.41459" lon="1.6259">
        <ele>151.9</ele>
        <time>2017-06-04T07:11:22Z</time>
      </trkpt>
      <trkpt lat="49.41455" lon="1.62576">
        <ele>150.5</ele>
        <time>2017-06-04T07:11:26Z</time>
      </trkpt>
      <trkpt lat="49.41452" lon="1.62558">
        <ele>149.3</ele>
        <time>2017-06-04T07:11:29Z</time>
      </trkpt>
      <trkpt lat="49.41451" lon="1.62544">
        <ele>147.6</ele>
        <time>2017-06-04T07:11:33Z</time>
      </trkpt>
      <trkpt lat="49.41454" lon="1.6253">
        <ele>146</ele>
        <time>2017-06-04T07:11:37Z</time>
      </trkpt>
      <trkpt lat="49.41456" lon="1.62513">
        <ele>144</ele>
        <time>2017-06-04T07:11:42Z</time>
      </trkpt>
      <trkpt lat="49.41452" lon="1.62499">
        <ele>142.8</ele>
        <time>2017-06-04T07:11:45Z</time>
      </trkpt>
      <trkpt lat="49.41445" lon="1.62487">
        <ele>141.5</ele>
        <time>2017-06-04T07:11:48Z</time>
      </trkpt>
      <trkpt lat="49.41436" lon="1.62479">
        <ele>139</ele>
        <time>2017-06-04T07:11:54Z</time>
      </trkpt>
      <trkpt lat="49.41427" lon="1.62484">
        <ele>135.6</ele>
        <time>2017-06-04T07:12:07Z</time>
      </trkpt>
      <trkpt lat="49.41429" lon="1.6247">
        <ele>132.1</ele>
        <time>2017-06-04T07:12:41Z</time>
      </trkpt>
      <trkpt lat="49.41435" lon="1.62458">
        <ele>131.8</ele>
        <time>2017-06-04T07:12:53Z</time>
      </trkpt>
      <trkpt lat="49.41443" lon="1.62452">
        <ele>131.7</ele>
        <time>2017-06-04T07:13:09Z</time>
      </trkpt>
      <trkpt lat="49.41452" lon="1.62456">
        <ele>131.3</ele>
        <time>2017-06-04T07:13:53Z</time>
      </trkpt>
      <trkpt lat="49.41461" lon="1.62459">
        <ele>130.7</ele>
        <time>2017-06-04T07:14:12Z</time>
      </trkpt>
      <trkpt lat="49.41471" lon="1.62459">
        <ele>130.5</ele>
        <time>2017-06-04T07:14:21Z</time>
      </trkpt>
      <trkpt lat="49.4148" lon="1.62459">
        <ele>129.5</ele>
        <time>2017-06-04T07:14:32Z</time>
      </trkpt>
      <trkpt lat="49.41489" lon="1.62459">
        <ele>128.4</ele>
        <time>2017-06-04T07:14:41Z</time>
      </trkpt>
      <trkpt lat="49.41499" lon="1.6246">
        <ele>126.7</ele>
        <time>2017-06-04T07:14:58Z</time>
      </trkpt>
      <trkpt lat="49.41508" lon="1.62461">
        <ele>125.8</ele>
        <time>2017-06-04T07:15:34Z</time>
      </trkpt>
      <trkpt lat="49.41517" lon="1.62462">
        <ele>125.6</ele>
        <time>2017-06-04T07:16:12Z</time>
      </trkpt>
      <trkpt lat="49.41526" lon="1.62464">
        <ele>125.4</ele>
        <time>2017-06-04T07:16:40Z</time>
      </trkpt>
      <trkpt lat="49.41536" lon="1.62467">
        <ele>125</ele>
        <time>2017-06-04T07:17:06Z</time>
      </trkpt>
      <trkpt lat="49.41545" lon="1.6247">
        <ele>125</ele>
        <time>2017-06-04T07:17:11Z</time>
      </trkpt>
      <trkpt lat="49.41556" lon="1.6247">
        <ele>124.9</ele>
        <time>2017-06-04T07:17:15Z</time>
      </trkpt>
      <trkpt lat="49.41563" lon="1.62458">
        <ele>124.7</ele>
        <time>2017-06-04T07:17:21Z</time>
      </trkpt>
      <trkpt lat="49.41567" lon="1.62445">
        <ele>124.3</ele>
        <time>2017-06-04T07:17:28Z</time>
      </trkpt>
      <trkpt lat="49.41568" lon="1.6243">
        <ele>124.1</ele>
        <time>2017-06-04T07:17:38Z</time>
      </trkpt>
      <trkpt lat="49.4157" lon="1.62416">
        <ele>124.9</ele>
        <time>2017-06-04T07:17:47Z</time>
      </trkpt>
      <trkpt lat="49.41573" lon="1.62401">
        <ele>125.9</ele>
        <time>2017-06-04T07:17:54Z</time>
      </trkpt>
      <trkpt lat="49.41574" lon="1.62387">
        <ele>127.2</ele>
        <time>2017-06-04T07:18:01Z</time>
      </trkpt>
      <trkpt lat="49.41578" lon="1.62372">
        <ele>128.3</ele>
        <time>2017-06-04T07:18:10Z</time>
      </trkpt>
      <trkpt lat="49.4158" lon="1.62357">
        <ele>129.3</ele>
        <time>2017-06-04T07:18:17Z</time>
      </trkpt>
      <trkpt lat="49.41582" lon="1.62343">
        <ele>130.3</ele>
        <time>2017-06-04T07:18:25Z</time>
      </trkpt>
      <trkpt lat="49.41582" lon="1.62329">
        <ele>131.1</ele>
        <time>2017-06-04T07:18:32Z</time>
      </trkpt>
      <trkpt lat="49.41585" lon="1.62315">
        <ele>131.9</ele>
        <time>2017-06-04T07:18:38Z</time>
      </trkpt>
      <trkpt lat="49.41586" lon="1.62301">
        <ele>133.2</ele>
        <time>2017-06-04T07:18:46Z</time>
      </trkpt>
      <trkpt lat="49.41586" lon="1.62287">
        <ele>134.3</ele>
        <time>2017-06-04T07:18:54Z</time>
      </trkpt>
      <trkpt lat="49.41588" lon="1.62272">
        <ele>135.6</ele>
        <time>2017-06-04T07:19:07Z</time>
      </trkpt>
      <trkpt lat="49.41589" lon="1.62256">
        <ele>136.8</ele>
        <time>2017-06-04T07:19:17Z</time>
      </trkpt>
      <trkpt lat="49.41592" lon="1.62242">
        <ele>138.1</ele>
        <time>2017-06-04T07:19:26Z</time>
      </trkpt>
      <trkpt lat="49.4159" lon="1.62229">
        <ele>139.2</ele>
        <time>2017-06-04T07:19:33Z</time>
      </trkpt>
      <trkpt lat="49.41587" lon="1.62216">
        <ele>140.4</ele>
        <time>2017-06-04T07:19:40Z</time>
      </trkpt>
      <trkpt lat="49.41581" lon="1.62205">
        <ele>142.1</ele>
        <time>2017-06-04T07:19:50Z</time>
      </trkpt>
      <trkpt lat="49.41572" lon="1.62199">
        <ele>143.4</ele>
        <time>2017-06-04T07:20:01Z</time>
      </trkpt>
      <trkpt lat="49.41563" lon="1.62193">
        <ele>144.1</ele>
        <time>2017-06-04T07:20:08Z</time>
      </trkpt>
      <trkpt lat="49.41552" lon="1.62187">
        <ele>144.6</ele>
        <time>2017-06-04T07:20:15Z</time>
      </trkpt>
      <trkpt lat="49.4154" lon="1.62182">
        <ele>144.7</ele>
        <time>2017-06-04T07:20:18Z</time>
      </trkpt>
      <trkpt lat="49.4153" lon="1.62176">
        <ele>144.8</ele>
        <time>2017-06-04T07:20:21Z</time>
      </trkpt>
      <trkpt lat="49.41521" lon="1.6217">
        <ele>145</ele>
        <time>2017-06-04T07:20:25Z</time>
      </trkpt>
      <trkpt lat="49.41511" lon="1.62161">
        <ele>145</ele>
        <time>2017-06-04T07:20:29Z</time>
      </trkpt>
      <trkpt lat="49.41502" lon="1.62158">
        <ele>145.1</ele>
        <time>2017-06-04T07:20:33Z</time>
      </trkpt>
      <trkpt lat="49.41492" lon="1.6215">
        <ele>145.1</ele>
        <time>2017-06-04T07:20:37Z</time>
      </trkpt>
      <trkpt lat="49.41482" lon="1.6215">
        <ele>145.1</ele>
        <time>2017-06-04T07:20:41Z</time>
      </trkpt>
      <trkpt lat="49.41472" lon="1.62161">
        <ele>145.1</ele>
        <time>2017-06-04T07:20:45Z</time>
      </trkpt>
      <trkpt lat="49.41464" lon="1.62171">
        <ele>145</ele>
        <time>2017-06-04T07:20:49Z</time>
      </trkpt>
      <trkpt lat="49.41456" lon="1.62183">
        <ele>144.7</ele>
        <time>2017-06-04T07:20:53Z</time>
      </trkpt>
      <trkpt lat="49.41445" lon="1.62188">
        <ele>144.3</ele>
        <time>2017-06-04T07:20:57Z</time>
      </trkpt>
      <trkpt lat="49.41435" lon="1.62196">
        <ele>143.8</ele>
        <time>2017-06-04T07:21:01Z</time>
      </trkpt>
      <trkpt lat="49.41425" lon="1.62202">
        <ele>143.3</ele>
        <time>2017-06-04T07:21:04Z</time>
      </trkpt>
      <trkpt lat="49.41414" lon="1.62203">
        <ele>142.7</ele>
        <time>2017-06-04T07:21:07Z</time>
      </trkpt>
      <trkpt lat="49.41402" lon="1.622">
        <ele>142.1</ele>
        <time>2017-06-04T07:21:10Z</time>
      </trkpt>
      <trkpt lat="49.41392" lon="1.62198">
        <ele>141.5</ele>
        <time>2017-06-04T07:21:13Z</time>
      </trkpt>
      <trkpt lat="49.41386" lon="1.62188">
        <ele>140.4</ele>
        <time>2017-06-04T07:21:20Z</time>
      </trkpt>
      <trkpt lat="49.41389" lon="1.62174">
        <ele>139.7</ele>
        <time>2017-06-04T07:21:26Z</time>
      </trkpt>
      <trkpt lat="49.41392" lon="1.62159">
        <ele>139.3</ele>
        <time>2017-06-04T07:21:31Z</time>
      </trkpt>
      <trkpt lat="49.41395" lon="1.62146">
        <ele>139.1</ele>
        <time>2017-06-04T07:21:35Z</time>
      </trkpt>
      <trkpt lat="49.41398" lon="1.6213">
        <ele>138.8</ele>
        <time>2017-06-04T07:21:40Z</time>
      </trkpt>
      <trkpt lat="49.41398" lon="1.62116">
        <ele>138.8</ele>
        <time>2017-06-04T07:21:44Z</time>
      </trkpt>
      <trkpt lat="49.41398" lon="1.62101">
        <ele>138.8</ele>
        <time>2017-06-04T07:21:48Z</time>
      </trkpt>
      <trkpt lat="49.41398" lon="1.62087">
        <ele>138.9</ele>
        <time>2017-06-04T07:21:52Z</time>
      </trkpt>
      <trkpt lat="49.41394" lon="1.62072">
        <ele>139.1</ele>
        <time>2017-06-04T07:21:57Z</time>
      </trkpt>
      <trkpt lat="49.41388" lon="1.62057">
        <ele>139.1</ele>
        <time>2017-06-04T07:22:02Z</time>
      </trkpt>
      <trkpt lat="49.41382" lon="1.62044">
        <ele>138.9</ele>
        <time>2017-06-04T07:22:07Z</time>
      </trkpt>
      <trkpt lat="49.4138" lon="1.6203">
        <ele>138.6</ele>
        <time>2017-06-04T07:22:11Z</time>
      </trkpt>
      <trkpt lat="49.41376" lon="1.62016">
        <ele>138.4</ele>
        <time>2017-06-04T07:22:14Z</time>
      </trkpt>
      <trkpt lat="49.41372" lon="1.62001">
        <ele>138</ele>
        <time>2017-06-04T07:22:17Z</time>
      </trkpt>
      <trkpt lat="49.41367" lon="1.61987">
        <ele>137.4</ele>
        <time>2017-06-04T07:22:21Z</time>
      </trkpt>
      <trkpt lat="49.41363" lon="1.61973">
        <ele>136.7</ele>
        <time>2017-06-04T07:22:26Z</time>
      </trkpt>
      <trkpt lat="49.41359" lon="1.61957">
        <ele>136</ele>
        <time>2017-06-04T07:22:31Z</time>
      </trkpt>
      <trkpt lat="49.41357" lon="1.61942">
        <ele>135.3</ele>
        <time>2017-06-04T07:22:35Z</time>
      </trkpt>
      <trkpt lat="49.41352" lon="1.61927">
        <ele>134.5</ele>
        <time>2017-06-04T07:22:40Z</time>
      </trkpt>
      <trkpt lat="49.41345" lon="1.61916">
        <ele>131.9</ele>
        <time>2017-06-04T07:22:59Z</time>
      </trkpt>
      <trkpt lat="49.4134" lon="1.61905">
        <ele>130.9</ele>
        <time>2017-06-04T07:23:11Z</time>
      </trkpt>
      <trkpt lat="49.41335" lon="1.6189">
        <ele>130.3</ele>
        <time>2017-06-04T07:23:16Z</time>
      </trkpt>
      <trkpt lat="49.41328" lon="1.61881">
        <ele>127.3</ele>
        <time>2017-06-04T07:23:41Z</time>
      </trkpt>
      <trkpt lat="49.4132" lon="1.61875">
        <ele>125.9</ele>
        <time>2017-06-04T07:24:21Z</time>
      </trkpt>
      <trkpt lat="49.41311" lon="1.61869">
        <ele>125.3</ele>
        <time>2017-06-04T07:24:26Z</time>
      </trkpt>
      <trkpt lat="49.41303" lon="1.61859">
        <ele>123.9</ele>
        <time>2017-06-04T07:24:32Z</time>
      </trkpt>
      <trkpt lat="49.41295" lon="1.6185">
        <ele>122.5</ele>
        <time>2017-06-04T07:24:36Z</time>
      </trkpt>
      <trkpt lat="49.41288" lon="1.6184">
        <ele>120.7</ele>
        <time>2017-06-04T07:24:40Z</time>
      </trkpt>
      <trkpt lat="49.41282" lon="1.61828">
        <ele>118.5</ele>
        <time>2017-06-04T07:24:45Z</time>
      </trkpt>
      <trkpt lat="49.41284" lon="1.61814">
        <ele>111.6</ele>
        <time>2017-06-04T07:25:26Z</time>
      </trkpt>
      <trkpt lat="49.4129" lon="1.61802">
        <ele>111.3</ele>
        <time>2017-06-04T07:25:30Z</time>
      </trkpt>
      <trkpt lat="49.41294" lon="1.61788">
        <ele>111.1</ele>
        <time>2017-06-04T07:25:34Z</time>
      </trkpt>
      <trkpt lat="49.41299" lon="1.61775">
        <ele>110.9</ele>
        <time>2017-06-04T07:25:38Z</time>
      </trkpt>
      <trkpt lat="49.41306" lon="1.61765">
        <ele>110.8</ele>
        <time>2017-06-04T07:25:41Z</time>
      </trkpt>
      <trkpt lat="49.41312" lon="1.61749">
        <ele>110.7</ele>
        <time>2017-06-04T07:25:45Z</time>
      </trkpt>
      <trkpt lat="49.41316" lon="1.61737">
        <ele>110.5</ele>
        <time>2017-06-04T07:25:54Z</time>
      </trkpt>
      <trkpt lat="49.41322" lon="1.61722">
        <ele>110.3</ele>
        <time>2017-06-04T07:26:12Z</time>
      </trkpt>
      <trkpt lat="49.41329" lon="1.61711">
        <ele>110.3</ele>
        <time>2017-06-04T07:26:16Z</time>
      </trkpt>
      <trkpt lat="49.41335" lon="1.617">
        <ele>110.3</ele>
        <time>2017-06-04T07:26:19Z</time>
      </trkpt>
      <trkpt lat="49.41342" lon="1.61686">
        <ele>110.3</ele>
        <time>2017-06-04T07:26:22Z</time>
      </trkpt>
      <trkpt lat="49.4135" lon="1.61672">
        <ele>110.3</ele>
        <time>2017-06-04T07:26:25Z</time>
      </trkpt>
      <trkpt lat="49.41359" lon="1.61656">
        <ele>110.3</ele>
        <time>2017-06-04T07:26:28Z</time>
      </trkpt>
      <trkpt lat="49.41365" lon="1.61645">
        <ele>110.2</ele>
        <time>2017-06-04T07:26:30Z</time>
      </trkpt>
      <trkpt lat="49.41371" lon="1.61634">
        <ele>110.2</ele>
        <time>2017-06-04T07:26:32Z</time>
      </trkpt>
      <trkpt lat="49.41377" lon="1.61623">
        <ele>110.2</ele>
        <time>2017-06-04T07:26:34Z</time>
      </trkpt>
      <trkpt lat="49.41383" lon="1.61612">
        <ele>110.3</ele>
        <time>2017-06-04T07:26:36Z</time>
      </trkpt>
      <trkpt lat="49.41389" lon="1.61602">
        <ele>110.3</ele>
        <time>2017-06-04T07:26:38Z</time>
      </trkpt>
      <trkpt lat="49.41395" lon="1.61591">
        <ele>110.3</ele>
        <time>2017-06-04T07:26:40Z</time>
      </trkpt>
      <trkpt lat="49.41401" lon="1.61579">
        <ele>110.3</ele>
        <time>2017-06-04T07:26:42Z</time>
      </trkpt>
      <trkpt lat="49.41407" lon="1.61568">
        <ele>110.4</ele>
        <time>2017-06-04T07:26:44Z</time>
      </trkpt>
      <trkpt lat="49.41413" lon="1.61556">
        <ele>110.4</ele>
        <time>2017-06-04T07:26:46Z</time>
      </trkpt>
      <trkpt lat="49.41419" lon="1.61545">
        <ele>110.4</ele>
        <time>2017-06-04T07:26:48Z</time>
      </trkpt>
      <trkpt lat="49.41425" lon="1.61534">
        <ele>110.5</ele>
        <time>2017-06-04T07:26:50Z</time>
      </trkpt>
      <trkpt lat="49.4143" lon="1.61522">
        <ele>110.5</ele>
        <time>2017-06-04T07:26:52Z</time>
      </trkpt>
      <trkpt lat="49.41437" lon="1.61512">
        <ele>110.6</ele>
        <time>2017-06-04T07:26:54Z</time>
      </trkpt>
      <trkpt lat="49.41443" lon="1.61501">
        <ele>110.7</ele>
        <time>2017-06-04T07:26:56Z</time>
      </trkpt>
      <trkpt lat="49.41449" lon="1.6149">
        <ele>110.7</ele>
        <time>2017-06-04T07:26:58Z</time>
      </trkpt>
      <trkpt lat="49.41455" lon="1.61472">
        <ele>110.8</ele>
        <time>2017-06-04T07:27:01Z</time>
      </trkpt>
      <trkpt lat="49.41456" lon="1.61453">
        <ele>110.9</ele>
        <time>2017-06-04T07:27:04Z</time>
      </trkpt>
      <trkpt lat="49.41452" lon="1.61433">
        <ele>111</ele>
        <time>2017-06-04T07:27:07Z</time>
      </trkpt>
      <trkpt lat="49.41446" lon="1.61416">
        <ele>111</ele>
        <time>2017-06-04T07:27:10Z</time>
      </trkpt>
      <trkpt lat="49.41439" lon="1.61399">
        <ele>111.1</ele>
        <time>2017-06-04T07:27:13Z</time>
      </trkpt>
      <trkpt lat="49.41433" lon="1.61381">
        <ele>111.1</ele>
        <time>2017-06-04T07:27:16Z</time>
      </trkpt>
      <trkpt lat="49.41429" lon="1.61369">
        <ele>111.2</ele>
        <time>2017-06-04T07:27:18Z</time>
      </trkpt>
      <trkpt lat="49.41424" lon="1.61356">
        <ele>111.2</ele>
        <time>2017-06-04T07:27:20Z</time>
      </trkpt>
      <trkpt lat="49.4142" lon="1.61342">
        <ele>111.2</ele>
        <time>2017-06-04T07:27:22Z</time>
      </trkpt>
      <trkpt lat="49.41415" lon="1.61329">
        <ele>111.2</ele>
        <time>2017-06-04T07:27:24Z</time>
      </trkpt>
      <trkpt lat="49.4141" lon="1.61316">
        <ele>111.2</ele>
        <time>2017-06-04T07:27:26Z</time>
      </trkpt>
      <trkpt lat="49.41405" lon="1.61302">
        <ele>111.2</ele>
        <time>2017-06-04T07:27:28Z</time>
      </trkpt>
      <trkpt lat="49.414" lon="1.61289">
        <ele>111.3</ele>
        <time>2017-06-04T07:27:30Z</time>
      </trkpt>
      <trkpt lat="49.41396" lon="1.61276">
        <ele>111.3</ele>
        <time>2017-06-04T07:27:32Z</time>
      </trkpt>
      <trkpt lat="49.41392" lon="1.61262">
        <ele>111.3</ele>
        <time>2017-06-04T07:27:34Z</time>
      </trkpt>
      <trkpt lat="49.41387" lon="1.61249">
        <ele>111.3</ele>
        <time>2017-06-04T07:27:36Z</time>
      </trkpt>
      <trkpt lat="49.41381" lon="1.61236">
        <ele>111.3</ele>
        <time>2017-06-04T07:27:38Z</time>
      </trkpt>
      <trkpt lat="49.41376" lon="1.61223">
        <ele>111.3</ele>
        <time>2017-06-04T07:27:40Z</time>
      </trkpt>
      <trkpt lat="49.41371" lon="1.61209">
        <ele>111.2</ele>
        <time>2017-06-04T07:27:42Z</time>
      </trkpt>
      <trkpt lat="49.41365" lon="1.61196">
        <ele>111.2</ele>
        <time>2017-06-04T07:27:44Z</time>
      </trkpt>
      <trkpt lat="49.41361" lon="1.61182">
        <ele>111.2</ele>
        <time>2017-06-04T07:27:46Z</time>
      </trkpt>
      <trkpt lat="49.41355" lon="1.61169">
        <ele>111.2</ele>
        <time>2017-06-04T07:27:48Z</time>
      </trkpt>
      <trkpt lat="49.41349" lon="1.61155">
        <ele>111.2</ele>
        <time>2017-06-04T07:27:50Z</time>
      </trkpt>
      <trkpt lat="49.41345" lon="1.61141">
        <ele>111.2</ele>
        <time>2017-06-04T07:27:52Z</time>
      </trkpt>
      <trkpt lat="49.4134" lon="1.61127">
        <ele>111.3</ele>
        <time>2017-06-04T07:27:54Z</time>
      </trkpt>
      <trkpt lat="49.41335" lon="1.61113">
        <ele>111.3</ele>
        <time>2017-06-04T07:27:56Z</time>
      </trkpt>
      <trkpt lat="49.4133" lon="1.61099">
        <ele>111.3</ele>
        <time>2017-06-04T07:27:58Z</time>
      </trkpt>
      <trkpt lat="49.41325" lon="1.61085">
        <ele>111.3</ele>
        <time>2017-06-04T07:28:00Z</time>
      </trkpt>
      <trkpt lat="49.41321" lon="1.61071">
        <ele>111.4</ele>
        <time>2017-06-04T07:28:02Z</time>
      </trkpt>
      <trkpt lat="49.41317" lon="1.61057">
        <ele>111.4</ele>
        <time>2017-06-04T07:28:04Z</time>
      </trkpt>
      <trkpt lat="49.41313" lon="1.61042">
        <ele>111.4</ele>
        <time>2017-06-04T07:28:06Z</time>
      </trkpt>
      <trkpt lat="49.4131" lon="1.61028">
        <ele>111.4</ele>
        <time>2017-06-04T07:28:08Z</time>
      </trkpt>
      <trkpt lat="49.41306" lon="1.61014">
        <ele>111.4</ele>
        <time>2017-06-04T07:28:10Z</time>
      </trkpt>
      <trkpt lat="49.41303" lon="1.61">
        <ele>111.5</ele>
        <time>2017-06-04T07:28:12Z</time>
      </trkpt>
      <trkpt lat="49.413" lon="1.60986">
        <ele>111.6</ele>
        <time>2017-06-04T07:28:14Z</time>
      </trkpt>
      <trkpt lat="49.41297" lon="1.60972">
        <ele>111.6</ele>
        <time>2017-06-04T07:28:16Z</time>
      </trkpt>
      <trkpt lat="49.41294" lon="1.60957">
        <ele>111.8</ele>
        <time>2017-06-04T07:28:18Z</time>
      </trkpt>
      <trkpt lat="49.4129" lon="1.60942">
        <ele>111.9</ele>
        <time>2017-06-04T07:28:20Z</time>
      </trkpt>
      <trkpt lat="49.41287" lon="1.60927">
        <ele>112.1</ele>
        <time>2017-06-04T07:28:22Z</time>
      </trkpt>
      <trkpt lat="49.41283" lon="1.60912">
        <ele>112.2</ele>
        <time>2017-06-04T07:28:24Z</time>
      </trkpt>
      <trkpt lat="49.4128" lon="1.60897">
        <ele>112.3</ele>
        <time>2017-06-04T07:28:26Z</time>
      </trkpt>
      <trkpt lat="49.41277" lon="1.60882">
        <ele>112.3</ele>
        <time>2017-06-04T07:28:28Z</time>
      </trkpt>
      <trkpt lat="49.41274" lon="1.60868">
        <ele>112.4</ele>
        <time>2017-06-04T07:28:30Z</time>
      </trkpt>
      <trkpt lat="49.4127" lon="1.60854">
        <ele>112.5</ele>
        <time>2017-06-04T07:28:32Z</time>
      </trkpt>
      <trkpt lat="49.41267" lon="1.6084">
        <ele>112.5</ele>
        <time>2017-06-04T07:28:34Z</time>
      </trkpt>
      <trkpt lat="49.41263" lon="1.60821">
        <ele>112.7</ele>
        <time>2017-06-04T07:28:37Z</time>
      </trkpt>
      <trkpt lat="49.4126" lon="1.60807">
        <ele>112.8</ele>
        <time>2017-06-04T07:28:39Z</time>
      </trkpt>
      <trkpt lat="49.41258" lon="1.60794">
        <ele>112.8</ele>
        <time>2017-06-04T07:28:41Z</time>
      </trkpt>
      <trkpt lat="49.41256" lon="1.60774">
        <ele>113</ele>
        <time>2017-06-04T07:28:44Z</time>
      </trkpt>
      <trkpt lat="49.41258" lon="1.60753">
        <ele>113</ele>
        <time>2017-06-04T07:28:47Z</time>
      </trkpt>
      <trkpt lat="49.41262" lon="1.6074">
        <ele>113.1</ele>
        <time>2017-06-04T07:28:49Z</time>
      </trkpt>
      <trkpt lat="49.41265" lon="1.60726">
        <ele>113.1</ele>
        <time>2017-06-04T07:28:51Z</time>
      </trkpt>
      <trkpt lat="49.4127" lon="1.60714">
        <ele>113.1</ele>
        <time>2017-06-04T07:28:53Z</time>
      </trkpt>
      <trkpt lat="49.41274" lon="1.60702">
        <ele>113.2</ele>
        <time>2017-06-04T07:28:55Z</time>
      </trkpt>
      <trkpt lat="49.41279" lon="1.6069">
        <ele>113.2</ele>
        <time>2017-06-04T07:28:57Z</time>
      </trkpt>
      <trkpt lat="49.41287" lon="1.60674">
        <ele>113.2</ele>
        <time>2017-06-04T07:29:00Z</time>
      </trkpt>
      <trkpt lat="49.41296" lon="1.60658">
        <ele>113.2</ele>
        <time>2017-06-04T07:29:03Z</time>
      </trkpt>
      <trkpt lat="49.41305" lon="1.60644">
        <ele>113.2</ele>
        <time>2017-06-04T07:29:06Z</time>
      </trkpt>
      <trkpt lat="49.41317" lon="1.60634">
        <ele>113.3</ele>
        <time>2017-06-04T07:29:09Z</time>
      </trkpt>
      <trkpt lat="49.41329" lon="1.60631">
        <ele>113.4</ele>
        <time>2017-06-04T07:29:12Z</time>
      </trkpt>
      <trkpt lat="49.4134" lon="1.60634">
        <ele>113.5</ele>
        <time>2017-06-04T07:29:15Z</time>
      </trkpt>
      <trkpt lat="49.41349" lon="1.60639">
        <ele>113.6</ele>
        <time>2017-06-04T07:29:17Z</time>
      </trkpt>
      <trkpt lat="49.41358" lon="1.60646">
        <ele>113.6</ele>
        <time>2017-06-04T07:29:19Z</time>
      </trkpt>
      <trkpt lat="49.41367" lon="1.60653">
        <ele>113.6</ele>
        <time>2017-06-04T07:29:21Z</time>
      </trkpt>
      <trkpt lat="49.41376" lon="1.6066">
        <ele>113.7</ele>
        <time>2017-06-04T07:29:23Z</time>
      </trkpt>
      <trkpt lat="49.41385" lon="1.60667">
        <ele>113.7</ele>
        <time>2017-06-04T07:29:25Z</time>
      </trkpt>
      <trkpt lat="49.41395" lon="1.60673">
        <ele>113.7</ele>
        <time>2017-06-04T07:29:27Z</time>
      </trkpt>
      <trkpt lat="49.41404" lon="1.6068">
        <ele>113.8</ele>
        <time>2017-06-04T07:29:29Z</time>
      </trkpt>
      <trkpt lat="49.41413" lon="1.60687">
        <ele>113.9</ele>
        <time>2017-06-04T07:29:31Z</time>
      </trkpt>
      <trkpt lat="49.41422" lon="1.60693">
        <ele>114</ele>
        <time>2017-06-04T07:29:33Z</time>
      </trkpt>
      <trkpt lat="49.41432" lon="1.607">
        <ele>114</ele>
        <time>2017-06-04T07:29:35Z</time>
      </trkpt>
      <trkpt lat="49.41441" lon="1.60707">
        <ele>114.1</ele>
        <time>2017-06-04T07:29:37Z</time>
      </trkpt>
      <trkpt lat="49.41451" lon="1.60714">
        <ele>114.2</ele>
        <time>2017-06-04T07:29:39Z</time>
      </trkpt>
      <trkpt lat="49.41461" lon="1.60721">
        <ele>114.2</ele>
        <time>2017-06-04T07:29:41Z</time>
      </trkpt>
      <trkpt lat="49.4147" lon="1.60727">
        <ele>114.3</ele>
        <time>2017-06-04T07:29:43Z</time>
      </trkpt>
      <trkpt lat="49.41479" lon="1.60733">
        <ele>114.3</ele>
        <time>2017-06-04T07:29:45Z</time>
      </trkpt>
      <trkpt lat="49.41489" lon="1.6074">
        <ele>114.3</ele>
        <time>2017-06-04T07:29:47Z</time>
      </trkpt>
      <trkpt lat="49.41499" lon="1.60745">
        <ele>114.4</ele>
        <time>2017-06-04T07:29:49Z</time>
      </trkpt>
      <trkpt lat="49.41509" lon="1.60749">
        <ele>114.4</ele>
        <time>2017-06-04T07:29:51Z</time>
      </trkpt>
      <trkpt lat="49.41522" lon="1.60753">
        <ele>114.5</ele>
        <time>2017-06-04T07:29:54Z</time>
      </trkpt>
      <trkpt lat="49.41535" lon="1.60751">
        <ele>114.6</ele>
        <time>2017-06-04T07:29:57Z</time>
      </trkpt>
      <trkpt lat="49.41546" lon="1.6075">
        <ele>114.7</ele>
        <time>2017-06-04T07:29:59Z</time>
      </trkpt>
      <trkpt lat="49.41556" lon="1.60747">
        <ele>114.8</ele>
        <time>2017-06-04T07:30:01Z</time>
      </trkpt>
      <trkpt lat="49.41566" lon="1.60743">
        <ele>114.8</ele>
        <time>2017-06-04T07:30:03Z</time>
      </trkpt>
      <trkpt lat="49.41575" lon="1.60738">
        <ele>114.9</ele>
        <time>2017-06-04T07:30:05Z</time>
      </trkpt>
      <trkpt lat="49.41586" lon="1.60734">
        <ele>115</ele>
        <time>2017-06-04T07:30:07Z</time>
      </trkpt>
      <trkpt lat="49.41594" lon="1.60726">
        <ele>115</ele>
        <time>2017-06-04T07:30:09Z</time>
      </trkpt>
      <trkpt lat="49.41604" lon="1.60719">
        <ele>115.1</ele>
        <time>2017-06-04T07:30:11Z</time>
      </trkpt>
      <trkpt lat="49.41614" lon="1.60713">
        <ele>115.2</ele>
        <time>2017-06-04T07:30:13Z</time>
      </trkpt>
      <trkpt lat="49.41624" lon="1.60707">
        <ele>115.2</ele>
        <time>2017-06-04T07:30:15Z</time>
      </trkpt>
      <trkpt lat="49.41631" lon="1.60698">
        <ele>115.3</ele>
        <time>2017-06-04T07:30:17Z</time>
      </trkpt>
      <trkpt lat="49.41641" lon="1.60689">
        <ele>115.4</ele>
        <time>2017-06-04T07:30:19Z</time>
      </trkpt>
      <trkpt lat="49.41649" lon="1.60677">
        <ele>115.4</ele>
        <time>2017-06-04T07:30:21Z</time>
      </trkpt>
      <trkpt lat="49.41657" lon="1.60665">
        <ele>115.5</ele>
        <time>2017-06-04T07:30:23Z</time>
      </trkpt>
      <trkpt lat="49.41664" lon="1.60652">
        <ele>115.6</ele>
        <time>2017-06-04T07:30:25Z</time>
      </trkpt>
      <trkpt lat="49.4167" lon="1.60638">
        <ele>115.7</ele>
        <time>2017-06-04T07:30:27Z</time>
      </trkpt>
      <trkpt lat="49.41677" lon="1.60624">
        <ele>115.7</ele>
        <time>2017-06-04T07:30:29Z</time>
      </trkpt>
      <trkpt lat="49.41683" lon="1.60609">
        <ele>115.8</ele>
        <time>2017-06-04T07:30:31Z</time>
      </trkpt>
      <trkpt lat="49.41688" lon="1.60594">
        <ele>115.8</ele>
        <time>2017-06-04T07:30:33Z</time>
      </trkpt>
      <trkpt lat="49.41695" lon="1.60581">
        <ele>115.9</ele>
        <time>2017-06-04T07:30:35Z</time>
      </trkpt>
      <trkpt lat="49.41701" lon="1.60569">
        <ele>115.9</ele>
        <time>2017-06-04T07:30:37Z</time>
      </trkpt>
      <trkpt lat="49.41708" lon="1.60554">
        <ele>115.9</ele>
        <time>2017-06-04T07:30:40Z</time>
      </trkpt>
      <trkpt lat="49.41714" lon="1.60543">
        <ele>116</ele>
        <time>2017-06-04T07:30:43Z</time>
      </trkpt>
      <trkpt lat="49.41719" lon="1.60528">
        <ele>116.1</ele>
        <time>2017-06-04T07:30:47Z</time>
      </trkpt>
      <trkpt lat="49.41722" lon="1.60515">
        <ele>116.5</ele>
        <time>2017-06-04T07:31:06Z</time>
      </trkpt>
      <trkpt lat="49.41725" lon="1.60502">
        <ele>116.7</ele>
        <time>2017-06-04T07:31:17Z</time>
      </trkpt>
      <trkpt lat="49.4173" lon="1.60487">
        <ele>116.7</ele>
        <time>2017-06-04T07:31:26Z</time>
      </trkpt>
      <trkpt lat="49.41735" lon="1.60474">
        <ele>116.7</ele>
        <time>2017-06-04T07:31:30Z</time>
      </trkpt>
      <trkpt lat="49.4174" lon="1.6046">
        <ele>116.7</ele>
        <time>2017-06-04T07:31:34Z</time>
      </trkpt>
      <trkpt lat="49.41744" lon="1.60447">
        <ele>116.7</ele>
        <time>2017-06-04T07:31:38Z</time>
      </trkpt>
      <trkpt lat="49.41751" lon="1.60434">
        <ele>116.7</ele>
        <time>2017-06-04T07:31:44Z</time>
      </trkpt>
      <trkpt lat="49.41755" lon="1.60422">
        <ele>116.7</ele>
        <time>2017-06-04T07:31:48Z</time>
      </trkpt>
      <trkpt lat="49.41763" lon="1.60411">
        <ele>116.7</ele>
        <time>2017-06-04T07:31:53Z</time>
      </trkpt>
      <trkpt lat="49.41771" lon="1.60399">
        <ele>116.7</ele>
        <time>2017-06-04T07:31:57Z</time>
      </trkpt>
      <trkpt lat="49.41778" lon="1.60389">
        <ele>116.7</ele>
        <time>2017-06-04T07:32:00Z</time>
      </trkpt>
      <trkpt lat="49.41786" lon="1.60378">
        <ele>116.7</ele>
        <time>2017-06-04T07:32:03Z</time>
      </trkpt>
      <trkpt lat="49.41793" lon="1.60366">
        <ele>116.7</ele>
        <time>2017-06-04T07:32:06Z</time>
      </trkpt>
      <trkpt lat="49.42069" lon="1.59892">
        <ele>159.2</ele>
        <time>2017-06-04T07:35:45Z</time>
      </trkpt>
      <trkpt lat="49.42187" lon="1.60217">
        <ele>142.4</ele>
        <time>2017-06-04T07:35:45Z</time>
      </trkpt>
      <trkpt lat="49.42263" lon="1.60307">
        <ele>136.9</ele>
        <time>2017-06-04T07:35:45Z</time>
      </trkpt>
      <trkpt lat="49.42212" lon="1.60217">
        <ele>141.3</ele>
        <time>2017-06-04T07:35:45Z</time>
      </trkpt>
      <trkpt lat="49.42204" lon="1.60089">
        <ele>150.1</ele>
        <time>2017-06-04T07:35:45Z</time>
      </trkpt>
      <trkpt lat="49.42275" lon="1.599">
        <ele>158.3</ele>
        <time>2017-06-04T07:35:45Z</time>
      </trkpt>
      <trkpt lat="49.42377" lon="1.59592">
        <ele>156.2</ele>
        <time>2017-06-04T07:35:45Z</time>
      </trkpt>
      <trkpt lat="49.42466" lon="1.5949">
        <ele>155.3</ele>
        <time>2017-06-04T07:35:45Z</time>
      </trkpt>
      <trkpt lat="49.42556" lon="1.59435">
        <ele>160.4</ele>
        <time>2017-06-04T07:35:45Z</time>
      </trkpt>
      <trkpt lat="49.42623" lon="1.59337">
        <ele>161.4</ele>
        <time>2017-06-04T07:35:45Z</time>
      </trkpt>
      <trkpt lat="49.42716" lon="1.59181">
        <ele>165.5</ele>
        <time>2017-06-04T07:35:45Z</time>
      </trkpt>
      <trkpt lat="49.42867" lon="1.59451">
        <ele>179.6</ele>
        <time>2017-06-04T07:35:45Z</time>
      </trkpt>
      <trkpt lat="49.43066" lon="1.5931">
        <ele>184.5</ele>
        <time>2017-06-04T07:35:45Z</time>
      </trkpt>
      <trkpt lat="49.43389" lon="1.59043">
        <ele>188.8</ele>
        <time>2017-06-04T07:35:45Z</time>
      </trkpt>
      <trkpt lat="49.43691" lon="1.58628">
        <ele>181</ele>
        <time>2017-06-04T07:35:45Z</time>
      </trkpt>
      <trkpt lat="49.43561" lon="1.58462">
        <ele>178.5</ele>
        <time>2017-06-04T07:35:45Z</time>
      </trkpt>
      <trkpt lat="49.43514" lon="1.58362">
        <ele>179.3</ele>
        <time>2017-06-04T07:35:45Z</time>
      </trkpt>
      <trkpt lat="49.43441" lon="1.58208">
        <ele>181.6</ele>
        <time>2017-06-04T07:35:45Z</time>
      </trkpt>
      <trkpt lat="49.43499" lon="1.58046">
        <ele>185.8</ele>
        <time>2017-06-04T07:35:45Z</time>
      </trkpt>
      <trkpt lat="49.43544" lon="1.57951">
        <ele>186.5</ele>
        <time>2017-06-04T07:35:45Z</time>
      </trkpt>
      <trkpt lat="49.43591" lon="1.57984">
        <ele>187.3</ele>
        <time>2017-06-04T07:35:45Z</time>
      </trkpt>
      <trkpt lat="49.4375" lon="1.58254">
        <ele>183.8</ele>
        <time>2017-06-04T07:35:45Z</time>
      </trkpt>
      <trkpt lat="49.43846" lon="1.58428">
        <ele>178.9</ele>
        <time>2017-06-04T07:35:45Z</time>
      </trkpt>
      <trkpt lat="49.43767" lon="1.58516">
        <ele>178.8</ele>
        <time>2017-06-04T07:35:45Z</time>
      </trkpt>
      <trkpt lat="49.43969" lon="1.58897">
        <ele>192.5</ele>
        <time>2017-06-04T07:35:45Z</time>
      </trkpt>
      <trkpt lat="49.44166" lon="1.59193">
        <ele>181</ele>
        <time>2017-06-04T07:35:45Z</time>
      </trkpt>
      <trkpt lat="49.44134" lon="1.59332">
        <ele>181</ele>
        <time>2017-06-04T07:35:45Z</time>
      </trkpt>
      <trkpt lat="49.43424" lon="1.59047">
        <ele>188.5</ele>
        <time>2017-06-04T07:35:45Z</time>
      </trkpt>
      <trkpt lat="49.43437" lon="1.59162">
        <ele>185.2</ele>
        <time>2017-06-04T07:35:45Z</time>
      </trkpt>
      <trkpt lat="49.43498" lon="1.59344">
        <ele>183.7</ele>
        <time>2017-06-04T07:35:45Z</time>
      </trkpt>
      <trkpt lat="49.4362" lon="1.59708">
        <ele>168.7</ele>
        <time>2017-06-04T07:35:45Z</time>
      </trkpt>
      <trkpt lat="49.43742" lon="1.59701">
        <ele>170.4</ele>
        <time>2017-06-04T07:35:45Z</time>
      </trkpt>
      <trkpt lat="49.43962" lon="1.59811">
        <ele>163.7</ele>
        <time>2017-06-04T07:35:45Z</time>
      </trkpt>
      <trkpt lat="49.44117" lon="1.60432">
        <ele>180.6</ele>
        <time>2017-06-04T07:35:45Z</time>
      </trkpt>
      <trkpt lat="49.43748" lon="1.60429">
        <ele>180.7</ele>
        <time>2017-06-04T07:35:45Z</time>
      </trkpt>
      <trkpt lat="49.43659" lon="1.60114">
        <ele>175.6</ele>
        <time>2017-06-04T07:35:45Z</time>
      </trkpt>
      <trkpt lat="49.43256" lon="1.60184">
        <ele>164.4</ele>
        <time>2017-06-04T07:35:45Z</time>
      </trkpt>
      <trkpt lat="49.43214" lon="1.59811">
        <ele>157.8</ele>
        <time>2017-06-04T07:35:45Z</time>
      </trkpt>
      <trkpt lat="49.42577" lon="1.59979">
        <ele>162.6</ele>
        <time>2017-06-04T07:35:45Z</time>
      </trkpt>
      <trkpt lat="49.42599" lon="1.60459">
        <ele>136.8</ele>
        <time>2017-06-04T07:35:45Z</time>
      </trkpt>
      <trkpt lat="49.42768" lon="1.60559">
        <ele>147.2</ele>
        <time>2017-06-04T07:35:45Z</time>
      </trkpt>
      <trkpt lat="49.4285" lon="1.60553">
        <ele>142.2</ele>
        <time>2017-06-04T07:35:45Z</time>
      </trkpt>
      <trkpt lat="49.42898" lon="1.6063">
        <ele>142.5</ele>
        <time>2017-06-04T07:35:45Z</time>
      </trkpt>
      <trkpt lat="49.43" lon="1.60725">
        <ele>138</ele>
        <time>2017-06-04T07:35:45Z</time>
      </trkpt>
      <trkpt lat="49.43028" lon="1.60916">
        <ele>144</ele>
        <time>2017-06-04T07:35:45Z</time>
      </trkpt>
      <trkpt lat="49.43059" lon="1.61125">
        <ele>144.5</ele>
        <time>2017-06-04T07:35:45Z</time>
      </trkpt>
      <trkpt lat="49.43128" lon="1.6129">
        <ele>153.2</ele>
        <time>2017-06-04T07:35:45Z</time>
      </trkpt>
      <trkpt lat="49.43208" lon="1.61413">
        <ele>149.5</ele>
        <time>2017-06-04T07:35:45Z</time>
      </trkpt>
      <trkpt lat="49.4321" lon="1.61515">
        <ele>153.7</ele>
        <time>2017-06-04T07:35:45Z</time>
      </trkpt>
      <trkpt lat="49.43081" lon="1.61364">
        <ele>165.3</ele>
        <time>2017-06-04T07:35:45Z</time>
      </trkpt>
      <trkpt lat="49.42964" lon="1.61126">
        <ele>161.5</ele>
        <time>2017-06-04T07:35:45Z</time>
      </trkpt>
      <trkpt lat="49.42915" lon="1.60909">
        <ele>157.8</ele>
        <time>2017-06-04T07:35:45Z</time>
      </trkpt>
      <trkpt lat="49.42776" lon="1.60707">
        <ele>163.5</ele>
        <time>2017-06-04T07:35:45Z</time>
      </trkpt>
      <trkpt lat="49.4258" lon="1.60597">
        <ele>157.3</ele>
        <time>2017-06-04T07:35:45Z</time>
      </trkpt>
      <trkpt lat="49.42508" lon="1.6074">
        <ele>164.2</ele>
        <time>2017-06-04T07:35:45Z</time>
      </trkpt>
      <trkpt lat="49.42436" lon="1.60817">
        <ele>166.8</ele>
        <time>2017-06-04T07:35:45Z</time>
      </trkpt>
      <trkpt lat="49.42349" lon="1.60821">
        <ele>169.2</ele>
        <time>2017-06-04T07:35:45Z</time>
      </trkpt>
      <trkpt lat="49.42297" lon="1.60878">
        <ele>172.2</ele>
        <time>2017-06-04T07:35:45Z</time>
      </trkpt>
      <trkpt lat="49.41806" lon="1.61215">
        <ele>170.1</ele>
        <time>2017-06-04T07:35:45Z</time>
      </trkpt>
      <trkpt lat="49.41912" lon="1.61609">
        <ele>165.7</ele>
        <time>2017-06-04T07:35:45Z</time>
      </trkpt>
      <trkpt lat="49.41722" lon="1.61748">
        <ele>159.3</ele>
        <time>2017-06-04T07:35:45Z</time>
      </trkpt>
      <trkpt lat="49.41814" lon="1.6218">
        <ele>157</ele>
        <time>2017-06-04T07:35:45Z</time>
      </trkpt>
      <trkpt lat="49.41709" lon="1.62517">
        <ele>173.2</ele>
        <time>2017-06-04T07:35:45Z</time>
      </trkpt>
      <trkpt lat="49.41629" lon="1.62628">
        <ele>173.3</ele>
        <time>2017-06-04T07:35:45Z</time>
      </trkpt>
      <trkpt lat="49.4155" lon="1.62672">
        <ele>172.9</ele>
        <time>2017-06-04T07:35:45Z</time>
      </trkpt>
      <trkpt lat="49.41498" lon="1.62808">
        <ele>174.9</ele>
        <time>2017-06-04T07:35:45Z</time>
      </trkpt>
      <trkpt lat="49.41265" lon="1.62795">
        <ele>163.7</ele>
        <time>2017-06-04T07:35:45Z</time>
      </trkpt>
      <trkpt lat="49.41102" lon="1.62843">
        <ele>154.8</ele>
        <time>2017-06-04T07:35:45Z</time>
      </trkpt>
      <trkpt lat="49.41028" lon="1.62959">
        <ele>136.8</ele>
        <time>2017-06-04T07:35:45Z</time>
      </trkpt>
      <trkpt lat="49.40956" lon="1.62984">
        <ele>123.8</ele>
        <time>2017-06-04T07:35:45Z</time>
      </trkpt>
      <trkpt lat="49.40892" lon="1.62929">
        <ele>119.2</ele>
        <time>2017-06-04T07:35:45Z</time>
      </trkpt>
      <trkpt lat="49.40774" lon="1.62992">
        <ele>115.3</ele>
        <time>2017-06-04T07:35:45Z</time>
      </trkpt>
      <trkpt lat="49.40811" lon="1.63067">
        <ele>119.5</ele>
        <time>2017-06-04T07:35:45Z</time>
      </trkpt>
      <trkpt lat="49.40827" lon="1.63185">
        <ele>141.2</ele>
        <time>2017-06-04T07:35:45Z</time>
      </trkpt>
      <trkpt lat="49.40875" lon="1.63257">
        <ele>156.3</ele>
        <time>2017-06-04T07:35:45Z</time>
      </trkpt>
      <trkpt lat="49.40913" lon="1.63348">
        <ele>163.7</ele>
        <time>2017-06-04T07:35:45Z</time>
      </trkpt>
      <trkpt lat="49.40934" lon="1.63458">
        <ele>164.6</ele>
        <time>2017-06-04T07:35:45Z</time>
      </trkpt>
      <trkpt lat="49.41516" lon="1.63291">
        <ele>164.9</ele>
        <time>2017-06-04T07:35:45Z</time>
      </trkpt>
      <trkpt lat="49.41564" lon="1.63334">
        <ele>164.1</ele>
        <time>2017-06-04T07:35:45Z</time>
      </trkpt>
      <trkpt lat="49.41531" lon="1.63356">
        <ele>169</ele>
        <time>2017-06-04T07:35:45Z</time>
      </trkpt>
      <trkpt lat="49.41579" lon="1.63527">
        <ele>173.3</ele>
        <time>2017-06-04T07:35:45Z</time>
      </trkpt>
      <trkpt lat="49.41422" lon="1.6373">
        <ele>185.4</ele>
        <time>2017-06-04T07:35:45Z</time>
      </trkpt>
      <trkpt lat="49.41835" lon="1.63946">
        <ele>176</ele>
        <time>2017-06-04T07:35:45Z</time>
      </trkpt>
      <trkpt lat="49.41929" lon="1.6409">
        <ele>175.9</ele>
        <time>2017-06-04T07:35:45Z</time>
      </trkpt>
      <trkpt lat="49.42007" lon="1.6419">
        <ele>175.7</ele>
        <time>2017-06-04T07:35:45Z</time>
      </trkpt>
      <trkpt lat="49.42007" lon="1.64265">
        <ele>178.8</ele>
        <time>2017-06-04T07:35:45Z</time>
      </trkpt>
      <trkpt lat="49.42009" lon="1.64301">
        <ele>180.2</ele>
        <time>2017-06-04T07:35:45Z</time>
      </trkpt>
      <trkpt lat="49.42408" lon="1.64787">
        <ele>195.4</ele>
        <time>2017-06-04T07:35:45Z</time>
      </trkpt>
      <trkpt lat="49.42551" lon="1.64531">
        <ele>181.1</ele>
        <time>2017-06-04T07:35:45Z</time>
      </trkpt>
      <trkpt lat="49.42577" lon="1.65155">
        <ele>188.2</ele>
        <time>2017-06-04T07:35:45Z</time>
      </trkpt>
      <trkpt lat="49.42514" lon="1.65176">
        <ele>193</ele>
        <time>2017-06-04T07:35:45Z</time>
      </trkpt>
      <trkpt lat="49.42526" lon="1.65733">
        <ele>192</ele>
        <time>2017-06-04T07:35:45Z</time>
      </trkpt>
      <trkpt lat="49.42919" lon="1.6572">
        <ele>195</ele>
        <time>2017-06-04T07:35:45Z</time>
      </trkpt>
      <trkpt lat="49.42982" lon="1.65845">
        <ele>197.2</ele>
        <time>2017-06-04T07:35:45Z</time>
      </trkpt>
      <trkpt lat="49.43105" lon="1.65801">
        <ele>194.6</ele>
        <time>2017-06-04T07:35:45Z</time>
      </trkpt>
      <trkpt lat="49.43234" lon="1.65984">
        <ele>186.3</ele>
        <time>2017-06-04T07:35:45Z</time>
      </trkpt>
      <trkpt lat="49.43411" lon="1.66358">
        <ele>179.5</ele>
        <time>2017-06-04T07:35:45Z</time>
      </trkpt>
      <trkpt lat="49.43796" lon="1.66341">
        <ele>192.3</ele>
        <time>2017-06-04T07:35:45Z</time>
      </trkpt>
      <trkpt lat="49.43823" lon="1.66286">
        <ele>194.1</ele>
        <time>2017-06-04T07:35:45Z</time>
      </trkpt>
    </trkseg>
  </trk>
</gpx>